<?xml version="1.0" encoding="UTF-8" standalone="no" ?>
<gpx xmlns="http://www.topografix.com/GPX/1/1" xmlns:xsi="http://www.w3.org/2001/XMLSchema-instance" xsi:schemaLocation="http://www.topografix.com/GPX/1/1 http://www.topografix.com/GPX/1/1/gpx.xsd" version="1.1" creator="VisuGPX - https://www.visugpx.com">
  <metadata>
    <name>Autour de Pléhérel Plage</name>
    <desc><![CDATA[Randonnée pédestre autour de Pléhérel plage avec un petit tour vers le chemin des carriers]]></desc>
  </metadata>
  <trk>
    <name><![CDATA[frehel]]></name>
    <cmt><![CDATA[À partir de la Piste Active]]></cmt>
    <trkseg>
    </trkseg>
    </trkseg>
    </trkseg>
    </trkseg>
    </trkseg>
    </trkseg>
    </trkseg>
    </trkseg>
    </trkseg>
    </trkseg>
    </trkseg>
    </trkseg>
    </trkseg>
    </trkseg>
    </trkseg>
      <trkpt lat="48.64738" lon="-2.36764">
        <ele>41</ele>
        <time>2019-10-07T12:11:30.000Z</time>
      </trkpt>
      <trkpt lat="48.64735" lon="-2.36767">
        <ele>38.339844</ele>
        <time>2019-10-07T12:14:07.000Z</time>
      </trkpt>
      <trkpt lat="48.64735" lon="-2.36767">
        <ele>38.339844</ele>
        <time>2019-10-07T12:14:07.000Z</time>
      </trkpt>
      <trkpt lat="48.64735" lon="-2.36766">
        <ele>38.414063</ele>
        <time>2019-10-07T12:14:15.000Z</time>
      </trkpt>
      <trkpt lat="48.64734" lon="-2.36764">
        <ele>41.097656</ele>
        <time>2019-10-07T12:19:36.000Z</time>
      </trkpt>
      <trkpt lat="48.6473" lon="-2.36782">
        <ele>35.097656</ele>
        <time>2019-10-07T12:19:37.000Z</time>
      </trkpt>
      <trkpt lat="48.64725" lon="-2.36769">
        <ele>49.597656</ele>
        <time>2019-10-07T12:19:39.000Z</time>
      </trkpt>
      <trkpt lat="48.64718" lon="-2.36778">
        <ele>48.097656</ele>
        <time>2019-10-07T12:21:00.000Z</time>
      </trkpt>
      <trkpt lat="48.64716" lon="-2.36792">
        <ele>47</ele>
        <time>2019-10-07T12:21:10.000Z</time>
      </trkpt>
      <trkpt lat="48.64714" lon="-2.36807">
        <ele>48.199219</ele>
        <time>2019-10-07T12:21:19.000Z</time>
      </trkpt>
      <trkpt lat="48.64712" lon="-2.36821">
        <ele>48.796875</ele>
        <time>2019-10-07T12:21:30.000Z</time>
      </trkpt>
      <trkpt lat="48.6471" lon="-2.36834">
        <ele>47</ele>
        <time>2019-10-07T12:21:39.000Z</time>
      </trkpt>
      <trkpt lat="48.64707" lon="-2.36848">
        <ele>47</ele>
        <time>2019-10-07T12:21:49.000Z</time>
      </trkpt>
      <trkpt lat="48.64703" lon="-2.3686">
        <ele>48.398438</ele>
        <time>2019-10-07T12:22:07.000Z</time>
      </trkpt>
      <trkpt lat="48.64693" lon="-2.36859">
        <ele>47</ele>
        <time>2019-10-07T12:22:17.000Z</time>
      </trkpt>
      <trkpt lat="48.64683" lon="-2.36856">
        <ele>46.398438</ele>
        <time>2019-10-07T12:22:27.000Z</time>
      </trkpt>
      <trkpt lat="48.64674" lon="-2.36851">
        <ele>46.699219</ele>
        <time>2019-10-07T12:22:35.000Z</time>
      </trkpt>
      <trkpt lat="48.64665" lon="-2.36848">
        <ele>47.398438</ele>
        <time>2019-10-07T12:22:43.000Z</time>
      </trkpt>
      <trkpt lat="48.64657" lon="-2.36844">
        <ele>47</ele>
        <time>2019-10-07T12:22:50.000Z</time>
      </trkpt>
      <trkpt lat="48.64639" lon="-2.36835">
        <ele>50.898438</ele>
        <time>2019-10-07T12:23:07.000Z</time>
      </trkpt>
      <trkpt lat="48.64612" lon="-2.36818">
        <ele>49.898438</ele>
        <time>2019-10-07T12:23:29.000Z</time>
      </trkpt>
      <trkpt lat="48.64603" lon="-2.3681">
        <ele>49.898438</ele>
        <time>2019-10-07T12:23:36.000Z</time>
      </trkpt>
      <trkpt lat="48.64596" lon="-2.36801">
        <ele>52.296875</ele>
        <time>2019-10-07T12:23:43.000Z</time>
      </trkpt>
      <trkpt lat="48.64573" lon="-2.36774">
        <ele>52.699219</ele>
        <time>2019-10-07T12:24:03.000Z</time>
      </trkpt>
      <trkpt lat="48.64566" lon="-2.36764">
        <ele>50.898438</ele>
        <time>2019-10-07T12:24:11.000Z</time>
      </trkpt>
      <trkpt lat="48.64525" lon="-2.36699">
        <ele>49.398438</ele>
        <time>2019-10-07T12:24:55.000Z</time>
      </trkpt>
      <trkpt lat="48.64524" lon="-2.36684">
        <ele>50.699219</ele>
        <time>2019-10-07T12:25:02.000Z</time>
      </trkpt>
      <trkpt lat="48.6453" lon="-2.36673">
        <ele>50.796875</ele>
        <time>2019-10-07T12:25:09.000Z</time>
      </trkpt>
      <trkpt lat="48.64537" lon="-2.36662">
        <ele>49.796875</ele>
        <time>2019-10-07T12:25:17.000Z</time>
      </trkpt>
      <trkpt lat="48.64544" lon="-2.36653">
        <ele>50</ele>
        <time>2019-10-07T12:25:24.000Z</time>
      </trkpt>
      <trkpt lat="48.64602" lon="-2.3658">
        <ele>52.097656</ele>
        <time>2019-10-07T12:26:20.000Z</time>
      </trkpt>
      <trkpt lat="48.64614" lon="-2.36558">
        <ele>50.296875</ele>
        <time>2019-10-07T12:26:35.000Z</time>
      </trkpt>
      <trkpt lat="48.6462" lon="-2.36546">
        <ele>49.796875</ele>
        <time>2019-10-07T12:26:43.000Z</time>
      </trkpt>
      <trkpt lat="48.64624" lon="-2.36532">
        <ele>50.296875</ele>
        <time>2019-10-07T12:26:51.000Z</time>
      </trkpt>
      <trkpt lat="48.64626" lon="-2.36518">
        <ele>50.796875</ele>
        <time>2019-10-07T12:26:58.000Z</time>
      </trkpt>
      <trkpt lat="48.64632" lon="-2.36507">
        <ele>50.699219</ele>
        <time>2019-10-07T12:27:06.000Z</time>
      </trkpt>
      <trkpt lat="48.64641" lon="-2.365">
        <ele>50.296875</ele>
        <time>2019-10-07T12:27:14.000Z</time>
      </trkpt>
      <trkpt lat="48.6465" lon="-2.36497">
        <ele>50.296875</ele>
        <time>2019-10-07T12:27:22.000Z</time>
      </trkpt>
      <trkpt lat="48.64659" lon="-2.36489">
        <ele>50.199219</ele>
        <time>2019-10-07T12:27:30.000Z</time>
      </trkpt>
      <trkpt lat="48.64665" lon="-2.36477">
        <ele>50.199219</ele>
        <time>2019-10-07T12:27:38.000Z</time>
      </trkpt>
      <trkpt lat="48.64667" lon="-2.36463">
        <ele>48</ele>
        <time>2019-10-07T12:27:45.000Z</time>
      </trkpt>
      <trkpt lat="48.64666" lon="-2.36448">
        <ele>46.796875</ele>
        <time>2019-10-07T12:27:54.000Z</time>
      </trkpt>
      <trkpt lat="48.64658" lon="-2.36374">
        <ele>47.5</ele>
        <time>2019-10-07T12:28:30.000Z</time>
      </trkpt>
      <trkpt lat="48.64657" lon="-2.3636">
        <ele>47</ele>
        <time>2019-10-07T12:28:37.000Z</time>
      </trkpt>
      <trkpt lat="48.64654" lon="-2.36331">
        <ele>46.898438</ele>
        <time>2019-10-07T12:28:51.000Z</time>
      </trkpt>
      <trkpt lat="48.64654" lon="-2.36316">
        <ele>47.898438</ele>
        <time>2019-10-07T12:28:58.000Z</time>
      </trkpt>
      <trkpt lat="48.64655" lon="-2.36302">
        <ele>49.699219</ele>
        <time>2019-10-07T12:29:06.000Z</time>
      </trkpt>
      <trkpt lat="48.64652" lon="-2.36289">
        <ele>49.5</ele>
        <time>2019-10-07T12:29:20.000Z</time>
      </trkpt>
      <trkpt lat="48.64652" lon="-2.36275">
        <ele>48.699219</ele>
        <time>2019-10-07T12:29:27.000Z</time>
      </trkpt>
      <trkpt lat="48.64652" lon="-2.36259">
        <ele>47.796875</ele>
        <time>2019-10-07T12:29:35.000Z</time>
      </trkpt>
      <trkpt lat="48.64654" lon="-2.36245">
        <ele>46.898438</ele>
        <time>2019-10-07T12:29:43.000Z</time>
      </trkpt>
      <trkpt lat="48.64657" lon="-2.3623">
        <ele>46.5</ele>
        <time>2019-10-07T12:29:51.000Z</time>
      </trkpt>
      <trkpt lat="48.6466" lon="-2.36216">
        <ele>46.296875</ele>
        <time>2019-10-07T12:29:59.000Z</time>
      </trkpt>
      <trkpt lat="48.64665" lon="-2.36202">
        <ele>46.097656</ele>
        <time>2019-10-07T12:30:07.000Z</time>
      </trkpt>
      <trkpt lat="48.64688" lon="-2.36141">
        <ele>49.398438</ele>
        <time>2019-10-07T12:30:43.000Z</time>
      </trkpt>
      <trkpt lat="48.64695" lon="-2.36129">
        <ele>52.296875</ele>
        <time>2019-10-07T12:30:52.000Z</time>
      </trkpt>
      <trkpt lat="48.64701" lon="-2.36119">
        <ele>54.199219</ele>
        <time>2019-10-07T12:31:00.000Z</time>
      </trkpt>
      <trkpt lat="48.64708" lon="-2.36109">
        <ele>51.898438</ele>
        <time>2019-10-07T12:31:08.000Z</time>
      </trkpt>
      <trkpt lat="48.64722" lon="-2.36092">
        <ele>49.398438</ele>
        <time>2019-10-07T12:31:26.000Z</time>
      </trkpt>
      <trkpt lat="48.64731" lon="-2.36084">
        <ele>44.296875</ele>
        <time>2019-10-07T12:31:36.000Z</time>
      </trkpt>
      <trkpt lat="48.64755" lon="-2.36063">
        <ele>35.898438</ele>
        <time>2019-10-07T12:32:03.000Z</time>
      </trkpt>
      <trkpt lat="48.64764" lon="-2.36057">
        <ele>36.796875</ele>
        <time>2019-10-07T12:32:11.000Z</time>
      </trkpt>
      <trkpt lat="48.64782" lon="-2.36045">
        <ele>38.699219</ele>
        <time>2019-10-07T12:32:23.000Z</time>
      </trkpt>
      <trkpt lat="48.64791" lon="-2.36036">
        <ele>38.898438</ele>
        <time>2019-10-07T12:32:31.000Z</time>
      </trkpt>
      <trkpt lat="48.648" lon="-2.36028">
        <ele>39.722656</ele>
        <time>2019-10-07T12:32:38.000Z</time>
      </trkpt>
      <trkpt lat="48.64806" lon="-2.36018">
        <ele>40.296875</ele>
        <time>2019-10-07T12:32:50.000Z</time>
      </trkpt>
      <trkpt lat="48.64815" lon="-2.36008">
        <ele>39.398438</ele>
        <time>2019-10-07T12:32:57.000Z</time>
      </trkpt>
      <trkpt lat="48.64821" lon="-2.35998">
        <ele>35.199219</ele>
        <time>2019-10-07T12:33:06.000Z</time>
      </trkpt>
      <trkpt lat="48.64827" lon="-2.35986">
        <ele>35.5</ele>
        <time>2019-10-07T12:33:27.000Z</time>
      </trkpt>
      <trkpt lat="48.64831" lon="-2.35973">
        <ele>38.097656</ele>
        <time>2019-10-07T12:33:34.000Z</time>
      </trkpt>
      <trkpt lat="48.64834" lon="-2.35959">
        <ele>39.898438</ele>
        <time>2019-10-07T12:33:42.000Z</time>
      </trkpt>
      <trkpt lat="48.64835" lon="-2.35945">
        <ele>41.097656</ele>
        <time>2019-10-07T12:33:50.000Z</time>
      </trkpt>
      <trkpt lat="48.64832" lon="-2.35932">
        <ele>41.296875</ele>
        <time>2019-10-07T12:33:57.000Z</time>
      </trkpt>
      <trkpt lat="48.64825" lon="-2.35921">
        <ele>40.699219</ele>
        <time>2019-10-07T12:34:05.000Z</time>
      </trkpt>
      <trkpt lat="48.64817" lon="-2.35913">
        <ele>40.097656</ele>
        <time>2019-10-07T12:34:13.000Z</time>
      </trkpt>
      <trkpt lat="48.64808" lon="-2.35908">
        <ele>39.296875</ele>
        <time>2019-10-07T12:34:21.000Z</time>
      </trkpt>
      <trkpt lat="48.648" lon="-2.35903">
        <ele>37.796875</ele>
        <time>2019-10-07T12:34:29.000Z</time>
      </trkpt>
      <trkpt lat="48.64791" lon="-2.35899">
        <ele>37.796875</ele>
        <time>2019-10-07T12:34:38.000Z</time>
      </trkpt>
      <trkpt lat="48.64782" lon="-2.35895">
        <ele>39.097656</ele>
        <time>2019-10-07T12:34:46.000Z</time>
      </trkpt>
      <trkpt lat="48.64774" lon="-2.35888">
        <ele>40</ele>
        <time>2019-10-07T12:34:53.000Z</time>
      </trkpt>
      <trkpt lat="48.64731" lon="-2.35857">
        <ele>40.796875</ele>
        <time>2019-10-07T12:35:29.000Z</time>
      </trkpt>
      <trkpt lat="48.64723" lon="-2.35848">
        <ele>39.5</ele>
        <time>2019-10-07T12:35:36.000Z</time>
      </trkpt>
      <trkpt lat="48.64723" lon="-2.35833">
        <ele>38.699219</ele>
        <time>2019-10-07T12:35:45.000Z</time>
      </trkpt>
      <trkpt lat="48.64724" lon="-2.35818">
        <ele>36.5</ele>
        <time>2019-10-07T12:35:52.000Z</time>
      </trkpt>
      <trkpt lat="48.64727" lon="-2.35803">
        <ele>35.097656</ele>
        <time>2019-10-07T12:36:00.000Z</time>
      </trkpt>
      <trkpt lat="48.64733" lon="-2.35759">
        <ele>35.398438</ele>
        <time>2019-10-07T12:36:24.000Z</time>
      </trkpt>
      <trkpt lat="48.64736" lon="-2.35715">
        <ele>36.699219</ele>
        <time>2019-10-07T12:36:48.000Z</time>
      </trkpt>
      <trkpt lat="48.6474" lon="-2.35627">
        <ele>35.5</ele>
        <time>2019-10-07T12:37:33.000Z</time>
      </trkpt>
      <trkpt lat="48.64742" lon="-2.35613">
        <ele>35.296875</ele>
        <time>2019-10-07T12:37:40.000Z</time>
      </trkpt>
      <trkpt lat="48.64746" lon="-2.356">
        <ele>33.5</ele>
        <time>2019-10-07T12:37:48.000Z</time>
      </trkpt>
      <trkpt lat="48.64753" lon="-2.35589">
        <ele>32.898438</ele>
        <time>2019-10-07T12:37:57.000Z</time>
      </trkpt>
      <trkpt lat="48.64759" lon="-2.35577">
        <ele>33.398438</ele>
        <time>2019-10-07T12:38:05.000Z</time>
      </trkpt>
      <trkpt lat="48.64765" lon="-2.35565">
        <ele>34.699219</ele>
        <time>2019-10-07T12:38:13.000Z</time>
      </trkpt>
      <trkpt lat="48.64769" lon="-2.35552">
        <ele>35.699219</ele>
        <time>2019-10-07T12:38:21.000Z</time>
      </trkpt>
      <trkpt lat="48.64777" lon="-2.35546">
        <ele>35</ele>
        <time>2019-10-07T12:38:30.000Z</time>
      </trkpt>
      <trkpt lat="48.64784" lon="-2.35557">
        <ele>34</ele>
        <time>2019-10-07T12:38:40.000Z</time>
      </trkpt>
      <trkpt lat="48.6479" lon="-2.35568">
        <ele>34.296875</ele>
        <time>2019-10-07T12:38:49.000Z</time>
      </trkpt>
      <trkpt lat="48.64806" lon="-2.35603">
        <ele>31.199219</ele>
        <time>2019-10-07T12:39:16.000Z</time>
      </trkpt>
      <trkpt lat="48.64813" lon="-2.35612">
        <ele>32.199219</ele>
        <time>2019-10-07T12:39:25.000Z</time>
      </trkpt>
      <trkpt lat="48.64821" lon="-2.3562">
        <ele>33.699219</ele>
        <time>2019-10-07T12:39:33.000Z</time>
      </trkpt>
      <trkpt lat="48.64829" lon="-2.35627">
        <ele>35</ele>
        <time>2019-10-07T12:39:40.000Z</time>
      </trkpt>
      <trkpt lat="48.64838" lon="-2.35633">
        <ele>35.5</ele>
        <time>2019-10-07T12:39:46.000Z</time>
      </trkpt>
      <trkpt lat="48.64847" lon="-2.35636">
        <ele>33.898438</ele>
        <time>2019-10-07T12:39:54.000Z</time>
      </trkpt>
      <trkpt lat="48.64856" lon="-2.35639">
        <ele>33.199219</ele>
        <time>2019-10-07T12:40:01.000Z</time>
      </trkpt>
      <trkpt lat="48.64866" lon="-2.35641">
        <ele>32</ele>
        <time>2019-10-07T12:40:08.000Z</time>
      </trkpt>
      <trkpt lat="48.64885" lon="-2.35642">
        <ele>29.5</ele>
        <time>2019-10-07T12:40:24.000Z</time>
      </trkpt>
      <trkpt lat="48.64896" lon="-2.35642">
        <ele>29.597656</ele>
        <time>2019-10-07T12:40:31.000Z</time>
      </trkpt>
      <trkpt lat="48.64916" lon="-2.3564">
        <ele>33.5</ele>
        <time>2019-10-07T12:40:45.000Z</time>
      </trkpt>
      <trkpt lat="48.64935" lon="-2.35637">
        <ele>34.597656</ele>
        <time>2019-10-07T12:41:00.000Z</time>
      </trkpt>
      <trkpt lat="48.64954" lon="-2.35633">
        <ele>35.199219</ele>
        <time>2019-10-07T12:41:16.000Z</time>
      </trkpt>
      <trkpt lat="48.64962" lon="-2.35627">
        <ele>36.199219</ele>
        <time>2019-10-07T12:41:24.000Z</time>
      </trkpt>
      <trkpt lat="48.64968" lon="-2.35614">
        <ele>39.5</ele>
        <time>2019-10-07T12:41:32.000Z</time>
      </trkpt>
      <trkpt lat="48.64972" lon="-2.35601">
        <ele>43.699219</ele>
        <time>2019-10-07T12:41:40.000Z</time>
      </trkpt>
      <trkpt lat="48.64982" lon="-2.35574">
        <ele>44.097656</ele>
        <time>2019-10-07T12:41:57.000Z</time>
      </trkpt>
      <trkpt lat="48.64988" lon="-2.35562">
        <ele>41</ele>
        <time>2019-10-07T12:42:05.000Z</time>
      </trkpt>
      <trkpt lat="48.64995" lon="-2.3555">
        <ele>39.796875</ele>
        <time>2019-10-07T12:42:14.000Z</time>
      </trkpt>
      <trkpt lat="48.65044" lon="-2.35462">
        <ele>37</ele>
        <time>2019-10-07T12:43:20.000Z</time>
      </trkpt>
      <trkpt lat="48.65053" lon="-2.35462">
        <ele>36</ele>
        <time>2019-10-07T12:43:41.000Z</time>
      </trkpt>
      <trkpt lat="48.6506" lon="-2.35472">
        <ele>36</ele>
        <time>2019-10-07T12:43:49.000Z</time>
      </trkpt>
      <trkpt lat="48.65067" lon="-2.35481">
        <ele>37.199219</ele>
        <time>2019-10-07T12:43:57.000Z</time>
      </trkpt>
      <trkpt lat="48.6509" lon="-2.35507">
        <ele>39.097656</ele>
        <time>2019-10-07T12:44:20.000Z</time>
      </trkpt>
      <trkpt lat="48.65096" lon="-2.35518">
        <ele>39.699219</ele>
        <time>2019-10-07T12:44:28.000Z</time>
      </trkpt>
      <trkpt lat="48.65105" lon="-2.35523">
        <ele>42</ele>
        <time>2019-10-07T12:44:37.000Z</time>
      </trkpt>
      <trkpt lat="48.65112" lon="-2.35531">
        <ele>42.199219</ele>
        <time>2019-10-07T12:44:44.000Z</time>
      </trkpt>
      <trkpt lat="48.65121" lon="-2.3554">
        <ele>45.398438</ele>
        <time>2019-10-07T12:44:52.000Z</time>
      </trkpt>
      <trkpt lat="48.65128" lon="-2.3555">
        <ele>46.699219</ele>
        <time>2019-10-07T12:45:01.000Z</time>
      </trkpt>
      <trkpt lat="48.6515" lon="-2.3558">
        <ele>43.898438</ele>
        <time>2019-10-07T12:45:24.000Z</time>
      </trkpt>
      <trkpt lat="48.65155" lon="-2.35593">
        <ele>44.398438</ele>
        <time>2019-10-07T12:45:31.000Z</time>
      </trkpt>
      <trkpt lat="48.65156" lon="-2.35607">
        <ele>45.597656</ele>
        <time>2019-10-07T12:45:38.000Z</time>
      </trkpt>
      <trkpt lat="48.65155" lon="-2.35621">
        <ele>46.699219</ele>
        <time>2019-10-07T12:45:45.000Z</time>
      </trkpt>
      <trkpt lat="48.65153" lon="-2.35636">
        <ele>48.597656</ele>
        <time>2019-10-07T12:45:54.000Z</time>
      </trkpt>
      <trkpt lat="48.65145" lon="-2.35678">
        <ele>46.796875</ele>
        <time>2019-10-07T12:46:17.000Z</time>
      </trkpt>
      <trkpt lat="48.65139" lon="-2.35706">
        <ele>47.898438</ele>
        <time>2019-10-07T12:46:33.000Z</time>
      </trkpt>
      <trkpt lat="48.65133" lon="-2.35751">
        <ele>45.597656</ele>
        <time>2019-10-07T12:46:57.000Z</time>
      </trkpt>
      <trkpt lat="48.65127" lon="-2.35763">
        <ele>45.5</ele>
        <time>2019-10-07T12:47:04.000Z</time>
      </trkpt>
      <trkpt lat="48.65122" lon="-2.35777">
        <ele>46.097656</ele>
        <time>2019-10-07T12:47:12.000Z</time>
      </trkpt>
      <trkpt lat="48.6512" lon="-2.35791">
        <ele>47.398438</ele>
        <time>2019-10-07T12:47:20.000Z</time>
      </trkpt>
      <trkpt lat="48.65123" lon="-2.35804">
        <ele>48.199219</ele>
        <time>2019-10-07T12:47:31.000Z</time>
      </trkpt>
      <trkpt lat="48.65116" lon="-2.35815">
        <ele>47.296875</ele>
        <time>2019-10-07T12:47:40.000Z</time>
      </trkpt>
      <trkpt lat="48.65111" lon="-2.35827">
        <ele>47.597656</ele>
        <time>2019-10-07T12:47:50.000Z</time>
      </trkpt>
      <trkpt lat="48.65105" lon="-2.35837">
        <ele>48.597656</ele>
        <time>2019-10-07T12:47:59.000Z</time>
      </trkpt>
      <trkpt lat="48.65103" lon="-2.35851">
        <ele>50.796875</ele>
        <time>2019-10-07T12:48:08.000Z</time>
      </trkpt>
      <trkpt lat="48.65101" lon="-2.35865">
        <ele>50.699219</ele>
        <time>2019-10-07T12:48:17.000Z</time>
      </trkpt>
      <trkpt lat="48.65097" lon="-2.35878">
        <ele>50.898438</ele>
        <time>2019-10-07T12:48:26.000Z</time>
      </trkpt>
      <trkpt lat="48.65088" lon="-2.35919">
        <ele>51.796875</ele>
        <time>2019-10-07T12:48:52.000Z</time>
      </trkpt>
      <trkpt lat="48.65086" lon="-2.35932">
        <ele>51.898438</ele>
        <time>2019-10-07T12:49:01.000Z</time>
      </trkpt>
      <trkpt lat="48.65085" lon="-2.35947">
        <ele>53.796875</ele>
        <time>2019-10-07T12:49:11.000Z</time>
      </trkpt>
      <trkpt lat="48.65087" lon="-2.3596">
        <ele>55.398438</ele>
        <time>2019-10-07T12:49:22.000Z</time>
      </trkpt>
      <trkpt lat="48.65093" lon="-2.35971">
        <ele>52.796875</ele>
        <time>2019-10-07T12:49:32.000Z</time>
      </trkpt>
      <trkpt lat="48.65097" lon="-2.35986">
        <ele>53.296875</ele>
        <time>2019-10-07T12:50:08.000Z</time>
      </trkpt>
      <trkpt lat="48.65103" lon="-2.35998">
        <ele>55.296875</ele>
        <time>2019-10-07T12:50:15.000Z</time>
      </trkpt>
      <trkpt lat="48.65107" lon="-2.36012">
        <ele>58.699219</ele>
        <time>2019-10-07T12:50:23.000Z</time>
      </trkpt>
      <trkpt lat="48.65109" lon="-2.36026">
        <ele>61.597656</ele>
        <time>2019-10-07T12:50:31.000Z</time>
      </trkpt>
      <trkpt lat="48.65109" lon="-2.36041">
        <ele>63</ele>
        <time>2019-10-07T12:50:40.000Z</time>
      </trkpt>
      <trkpt lat="48.65107" lon="-2.36057">
        <ele>61</ele>
        <time>2019-10-07T12:50:49.000Z</time>
      </trkpt>
      <trkpt lat="48.65105" lon="-2.3607">
        <ele>58.199219</ele>
        <time>2019-10-07T12:50:57.000Z</time>
      </trkpt>
      <trkpt lat="48.65101" lon="-2.36084">
        <ele>58.296875</ele>
        <time>2019-10-07T12:51:06.000Z</time>
      </trkpt>
      <trkpt lat="48.65098" lon="-2.36097">
        <ele>59.199219</ele>
        <time>2019-10-07T12:51:14.000Z</time>
      </trkpt>
      <trkpt lat="48.65094" lon="-2.3611">
        <ele>59.398438</ele>
        <time>2019-10-07T12:51:23.000Z</time>
      </trkpt>
      <trkpt lat="48.65088" lon="-2.36121">
        <ele>58.398438</ele>
        <time>2019-10-07T12:51:31.000Z</time>
      </trkpt>
      <trkpt lat="48.65081" lon="-2.3613">
        <ele>58.75</ele>
        <time>2019-10-07T12:51:39.000Z</time>
      </trkpt>
      <trkpt lat="48.65072" lon="-2.36132">
        <ele>57.296875</ele>
        <time>2019-10-07T12:51:51.000Z</time>
      </trkpt>
      <trkpt lat="48.65062" lon="-2.36133">
        <ele>55.898438</ele>
        <time>2019-10-07T12:52:02.000Z</time>
      </trkpt>
      <trkpt lat="48.6506" lon="-2.36146">
        <ele>55.597656</ele>
        <time>2019-10-07T12:52:12.000Z</time>
      </trkpt>
      <trkpt lat="48.6506" lon="-2.36161">
        <ele>55.296875</ele>
        <time>2019-10-07T12:52:22.000Z</time>
      </trkpt>
      <trkpt lat="48.65058" lon="-2.36204">
        <ele>56.398438</ele>
        <time>2019-10-07T12:52:50.000Z</time>
      </trkpt>
      <trkpt lat="48.65056" lon="-2.36217">
        <ele>57</ele>
        <time>2019-10-07T12:52:59.000Z</time>
      </trkpt>
      <trkpt lat="48.65057" lon="-2.36233">
        <ele>58.597656</ele>
        <time>2019-10-07T12:53:18.000Z</time>
      </trkpt>
      <trkpt lat="48.65058" lon="-2.36247">
        <ele>59.699219</ele>
        <time>2019-10-07T12:53:27.000Z</time>
      </trkpt>
      <trkpt lat="48.65059" lon="-2.36261">
        <ele>59.699219</ele>
        <time>2019-10-07T12:53:35.000Z</time>
      </trkpt>
      <trkpt lat="48.65059" lon="-2.36275">
        <ele>57.597656</ele>
        <time>2019-10-07T12:53:43.000Z</time>
      </trkpt>
      <trkpt lat="48.65061" lon="-2.36289">
        <ele>58.796875</ele>
        <time>2019-10-07T12:53:51.000Z</time>
      </trkpt>
      <trkpt lat="48.65061" lon="-2.36304">
        <ele>61.796875</ele>
        <time>2019-10-07T12:53:59.000Z</time>
      </trkpt>
      <trkpt lat="48.65062" lon="-2.36319">
        <ele>63.597656</ele>
        <time>2019-10-07T12:54:08.000Z</time>
      </trkpt>
      <trkpt lat="48.65062" lon="-2.36333">
        <ele>67.796875</ele>
        <time>2019-10-07T12:54:16.000Z</time>
      </trkpt>
      <trkpt lat="48.65063" lon="-2.36348">
        <ele>75.097656</ele>
        <time>2019-10-07T12:54:23.000Z</time>
      </trkpt>
      <trkpt lat="48.65062" lon="-2.36362">
        <ele>74</ele>
        <time>2019-10-07T12:54:32.000Z</time>
      </trkpt>
      <trkpt lat="48.6506" lon="-2.36376">
        <ele>71.597656</ele>
        <time>2019-10-07T12:54:41.000Z</time>
      </trkpt>
      <trkpt lat="48.65059" lon="-2.3639">
        <ele>69.796875</ele>
        <time>2019-10-07T12:54:50.000Z</time>
      </trkpt>
      <trkpt lat="48.65058" lon="-2.36433">
        <ele>64.796875</ele>
        <time>2019-10-07T12:55:17.000Z</time>
      </trkpt>
      <trkpt lat="48.6506" lon="-2.36448">
        <ele>64.898438</ele>
        <time>2019-10-07T12:55:25.000Z</time>
      </trkpt>
      <trkpt lat="48.65059" lon="-2.36462">
        <ele>65.199219</ele>
        <time>2019-10-07T12:55:33.000Z</time>
      </trkpt>
      <trkpt lat="48.65058" lon="-2.36476">
        <ele>64.296875</ele>
        <time>2019-10-07T12:55:41.000Z</time>
      </trkpt>
      <trkpt lat="48.65058" lon="-2.3649">
        <ele>64.5</ele>
        <time>2019-10-07T12:55:49.000Z</time>
      </trkpt>
      <trkpt lat="48.6506" lon="-2.36504">
        <ele>64.398438</ele>
        <time>2019-10-07T12:55:57.000Z</time>
      </trkpt>
      <trkpt lat="48.65059" lon="-2.36519">
        <ele>64.5</ele>
        <time>2019-10-07T12:56:05.000Z</time>
      </trkpt>
      <trkpt lat="48.65061" lon="-2.36532">
        <ele>64.296875</ele>
        <time>2019-10-07T12:56:12.000Z</time>
      </trkpt>
      <trkpt lat="48.65059" lon="-2.36546">
        <ele>62.597656</ele>
        <time>2019-10-07T12:56:21.000Z</time>
      </trkpt>
      <trkpt lat="48.65064" lon="-2.36558">
        <ele>60.097656</ele>
        <time>2019-10-07T12:56:32.000Z</time>
      </trkpt>
      <trkpt lat="48.65067" lon="-2.36572">
        <ele>59.296875</ele>
        <time>2019-10-07T12:56:46.000Z</time>
      </trkpt>
      <trkpt lat="48.65066" lon="-2.36586">
        <ele>59.5</ele>
        <time>2019-10-07T12:56:56.000Z</time>
      </trkpt>
      <trkpt lat="48.6506" lon="-2.36629">
        <ele>60.898438</ele>
        <time>2019-10-07T12:57:20.000Z</time>
      </trkpt>
      <trkpt lat="48.65061" lon="-2.36644">
        <ele>58.5</ele>
        <time>2019-10-07T12:57:29.000Z</time>
      </trkpt>
      <trkpt lat="48.65067" lon="-2.36654">
        <ele>59.097656</ele>
        <time>2019-10-07T12:57:38.000Z</time>
      </trkpt>
      <trkpt lat="48.6508" lon="-2.36674">
        <ele>60.296875</ele>
        <time>2019-10-07T12:58:03.000Z</time>
      </trkpt>
      <trkpt lat="48.65088" lon="-2.36682">
        <ele>61.5</ele>
        <time>2019-10-07T12:58:12.000Z</time>
      </trkpt>
      <trkpt lat="48.65094" lon="-2.36672">
        <ele>63</ele>
        <time>2019-10-07T12:58:20.000Z</time>
      </trkpt>
      <trkpt lat="48.65099" lon="-2.3666">
        <ele>64.199219</ele>
        <time>2019-10-07T12:58:28.000Z</time>
      </trkpt>
      <trkpt lat="48.65104" lon="-2.36648">
        <ele>64.097656</ele>
        <time>2019-10-07T12:58:37.000Z</time>
      </trkpt>
      <trkpt lat="48.65109" lon="-2.36635">
        <ele>64.097656</ele>
        <time>2019-10-07T12:58:45.000Z</time>
      </trkpt>
      <trkpt lat="48.65113" lon="-2.3662">
        <ele>63.398438</ele>
        <time>2019-10-07T12:58:53.000Z</time>
      </trkpt>
      <trkpt lat="48.65118" lon="-2.36592">
        <ele>61.898438</ele>
        <time>2019-10-07T12:59:09.000Z</time>
      </trkpt>
      <trkpt lat="48.65126" lon="-2.36585">
        <ele>61.898438</ele>
        <time>2019-10-07T12:59:17.000Z</time>
      </trkpt>
      <trkpt lat="48.65136" lon="-2.36582">
        <ele>65.296875</ele>
        <time>2019-10-07T12:59:26.000Z</time>
      </trkpt>
      <trkpt lat="48.65145" lon="-2.3658">
        <ele>64</ele>
        <time>2019-10-07T12:59:36.000Z</time>
      </trkpt>
      <trkpt lat="48.65154" lon="-2.36576">
        <ele>62.097656</ele>
        <time>2019-10-07T12:59:45.000Z</time>
      </trkpt>
      <trkpt lat="48.65161" lon="-2.36565">
        <ele>62.398438</ele>
        <time>2019-10-07T12:59:53.000Z</time>
      </trkpt>
      <trkpt lat="48.65166" lon="-2.36553">
        <ele>61.597656</ele>
        <time>2019-10-07T13:00:01.000Z</time>
      </trkpt>
      <trkpt lat="48.65182" lon="-2.36515">
        <ele>59.898438</ele>
        <time>2019-10-07T13:00:26.000Z</time>
      </trkpt>
      <trkpt lat="48.65189" lon="-2.36505">
        <ele>57.199219</ele>
        <time>2019-10-07T13:00:33.000Z</time>
      </trkpt>
      <trkpt lat="48.65199" lon="-2.36507">
        <ele>53.5</ele>
        <time>2019-10-07T13:00:42.000Z</time>
      </trkpt>
      <trkpt lat="48.65208" lon="-2.36506">
        <ele>50.796875</ele>
        <time>2019-10-07T13:00:50.000Z</time>
      </trkpt>
      <trkpt lat="48.65218" lon="-2.36509">
        <ele>54.597656</ele>
        <time>2019-10-07T13:00:59.000Z</time>
      </trkpt>
      <trkpt lat="48.65245" lon="-2.36519">
        <ele>56.097656</ele>
        <time>2019-10-07T13:01:23.000Z</time>
      </trkpt>
      <trkpt lat="48.65254" lon="-2.36519">
        <ele>52.097656</ele>
        <time>2019-10-07T13:01:31.000Z</time>
      </trkpt>
      <trkpt lat="48.65259" lon="-2.36531">
        <ele>51.699219</ele>
        <time>2019-10-07T13:01:39.000Z</time>
      </trkpt>
      <trkpt lat="48.65264" lon="-2.36544">
        <ele>53.097656</ele>
        <time>2019-10-07T13:01:49.000Z</time>
      </trkpt>
      <trkpt lat="48.65268" lon="-2.36556">
        <ele>54.199219</ele>
        <time>2019-10-07T13:01:56.000Z</time>
      </trkpt>
      <trkpt lat="48.6527" lon="-2.3657">
        <ele>53.199219</ele>
        <time>2019-10-07T13:02:04.000Z</time>
      </trkpt>
      <trkpt lat="48.65268" lon="-2.36585">
        <ele>52.898438</ele>
        <time>2019-10-07T13:02:12.000Z</time>
      </trkpt>
      <trkpt lat="48.65268" lon="-2.36599">
        <ele>55.199219</ele>
        <time>2019-10-07T13:02:21.000Z</time>
      </trkpt>
      <trkpt lat="48.65267" lon="-2.36628">
        <ele>56.597656</ele>
        <time>2019-10-07T13:02:39.000Z</time>
      </trkpt>
      <trkpt lat="48.65274" lon="-2.36637">
        <ele>58</ele>
        <time>2019-10-07T13:02:58.000Z</time>
      </trkpt>
      <trkpt lat="48.65284" lon="-2.36641">
        <ele>56.097656</ele>
        <time>2019-10-07T13:03:08.000Z</time>
      </trkpt>
      <trkpt lat="48.65293" lon="-2.36643">
        <ele>52.5</ele>
        <time>2019-10-07T13:03:16.000Z</time>
      </trkpt>
      <trkpt lat="48.65302" lon="-2.36648">
        <ele>50.5</ele>
        <time>2019-10-07T13:03:24.000Z</time>
      </trkpt>
      <trkpt lat="48.65311" lon="-2.36655">
        <ele>49.097656</ele>
        <time>2019-10-07T13:03:33.000Z</time>
      </trkpt>
      <trkpt lat="48.65318" lon="-2.36664">
        <ele>50.398438</ele>
        <time>2019-10-07T13:03:42.000Z</time>
      </trkpt>
      <trkpt lat="48.65327" lon="-2.3667">
        <ele>49.898438</ele>
        <time>2019-10-07T13:03:50.000Z</time>
      </trkpt>
      <trkpt lat="48.65336" lon="-2.36677">
        <ele>48.199219</ele>
        <time>2019-10-07T13:03:58.000Z</time>
      </trkpt>
      <trkpt lat="48.65344" lon="-2.36685">
        <ele>47</ele>
        <time>2019-10-07T13:04:06.000Z</time>
      </trkpt>
      <trkpt lat="48.6535" lon="-2.36696">
        <ele>46.199219</ele>
        <time>2019-10-07T13:04:14.000Z</time>
      </trkpt>
      <trkpt lat="48.65357" lon="-2.36706">
        <ele>43.796875</ele>
        <time>2019-10-07T13:04:22.000Z</time>
      </trkpt>
      <trkpt lat="48.65366" lon="-2.36709">
        <ele>43.898438</ele>
        <time>2019-10-07T13:04:33.000Z</time>
      </trkpt>
      <trkpt lat="48.65375" lon="-2.36705">
        <ele>45.199219</ele>
        <time>2019-10-07T13:04:41.000Z</time>
      </trkpt>
      <trkpt lat="48.65402" lon="-2.36688">
        <ele>42.199219</ele>
        <time>2019-10-07T13:05:05.000Z</time>
      </trkpt>
      <trkpt lat="48.65411" lon="-2.36685">
        <ele>43</ele>
        <time>2019-10-07T13:05:13.000Z</time>
      </trkpt>
      <trkpt lat="48.65418" lon="-2.36675">
        <ele>42.199219</ele>
        <time>2019-10-07T13:05:24.000Z</time>
      </trkpt>
      <trkpt lat="48.65428" lon="-2.36675">
        <ele>43</ele>
        <time>2019-10-07T13:05:33.000Z</time>
      </trkpt>
      <trkpt lat="48.65438" lon="-2.36678">
        <ele>44.199219</ele>
        <time>2019-10-07T13:05:42.000Z</time>
      </trkpt>
      <trkpt lat="48.65456" lon="-2.36682">
        <ele>45.5</ele>
        <time>2019-10-07T13:06:00.000Z</time>
      </trkpt>
      <trkpt lat="48.65466" lon="-2.36686">
        <ele>46.199219</ele>
        <time>2019-10-07T13:06:10.000Z</time>
      </trkpt>
      <trkpt lat="48.65494" lon="-2.36697">
        <ele>47.199219</ele>
        <time>2019-10-07T13:06:36.000Z</time>
      </trkpt>
      <trkpt lat="48.65513" lon="-2.36705">
        <ele>41.898438</ele>
        <time>2019-10-07T13:06:53.000Z</time>
      </trkpt>
      <trkpt lat="48.65521" lon="-2.36712">
        <ele>39.796875</ele>
        <time>2019-10-07T13:07:02.000Z</time>
      </trkpt>
      <trkpt lat="48.6553" lon="-2.36718">
        <ele>38.398438</ele>
        <time>2019-10-07T13:07:11.000Z</time>
      </trkpt>
      <trkpt lat="48.65539" lon="-2.36726">
        <ele>39.296875</ele>
        <time>2019-10-07T13:07:20.000Z</time>
      </trkpt>
      <trkpt lat="48.65548" lon="-2.36725">
        <ele>39.597656</ele>
        <time>2019-10-07T13:07:28.000Z</time>
      </trkpt>
      <trkpt lat="48.65557" lon="-2.36726">
        <ele>39.199219</ele>
        <time>2019-10-07T13:07:36.000Z</time>
      </trkpt>
      <trkpt lat="48.65566" lon="-2.36731">
        <ele>40.796875</ele>
        <time>2019-10-07T13:07:45.000Z</time>
      </trkpt>
      <trkpt lat="48.65573" lon="-2.36741">
        <ele>44.199219</ele>
        <time>2019-10-07T13:07:53.000Z</time>
      </trkpt>
      <trkpt lat="48.65579" lon="-2.36752">
        <ele>45.597656</ele>
        <time>2019-10-07T13:08:03.000Z</time>
      </trkpt>
      <trkpt lat="48.65582" lon="-2.36766">
        <ele>44.898438</ele>
        <time>2019-10-07T13:08:16.000Z</time>
      </trkpt>
      <trkpt lat="48.65584" lon="-2.36779">
        <ele>43</ele>
        <time>2019-10-07T13:08:27.000Z</time>
      </trkpt>
      <trkpt lat="48.65588" lon="-2.36793">
        <ele>43.199219</ele>
        <time>2019-10-07T13:08:39.000Z</time>
      </trkpt>
      <trkpt lat="48.65592" lon="-2.36805">
        <ele>43.199219</ele>
        <time>2019-10-07T13:08:49.000Z</time>
      </trkpt>
      <trkpt lat="48.65595" lon="-2.36818">
        <ele>43.597656</ele>
        <time>2019-10-07T13:08:58.000Z</time>
      </trkpt>
      <trkpt lat="48.65597" lon="-2.36832">
        <ele>43.597656</ele>
        <time>2019-10-07T13:09:07.000Z</time>
      </trkpt>
      <trkpt lat="48.65605" lon="-2.3684">
        <ele>43.097656</ele>
        <time>2019-10-07T13:09:15.000Z</time>
      </trkpt>
      <trkpt lat="48.6563" lon="-2.36864">
        <ele>39.898438</ele>
        <time>2019-10-07T13:09:43.000Z</time>
      </trkpt>
      <trkpt lat="48.65639" lon="-2.3687">
        <ele>42.699219</ele>
        <time>2019-10-07T13:09:52.000Z</time>
      </trkpt>
      <trkpt lat="48.65649" lon="-2.36873">
        <ele>44</ele>
        <time>2019-10-07T13:10:01.000Z</time>
      </trkpt>
      <trkpt lat="48.65667" lon="-2.36879">
        <ele>45.398438</ele>
        <time>2019-10-07T13:10:18.000Z</time>
      </trkpt>
      <trkpt lat="48.65676" lon="-2.36885">
        <ele>48.855469</ele>
        <time>2019-10-07T13:10:28.000Z</time>
      </trkpt>
      <trkpt lat="48.65685" lon="-2.3688">
        <ele>40.796875</ele>
        <time>2019-10-07T13:10:59.000Z</time>
      </trkpt>
      <trkpt lat="48.65676" lon="-2.36885">
        <ele>39.097656</ele>
        <time>2019-10-07T13:11:37.000Z</time>
      </trkpt>
      <trkpt lat="48.6563" lon="-2.36909">
        <ele>40.097656</ele>
        <time>2019-10-07T13:12:24.000Z</time>
      </trkpt>
      <trkpt lat="48.65621" lon="-2.36909">
        <ele>41.097656</ele>
        <time>2019-10-07T13:12:32.000Z</time>
      </trkpt>
      <trkpt lat="48.65612" lon="-2.36908">
        <ele>40.5</ele>
        <time>2019-10-07T13:12:40.000Z</time>
      </trkpt>
      <trkpt lat="48.65603" lon="-2.36915">
        <ele>39.597656</ele>
        <time>2019-10-07T13:12:50.000Z</time>
      </trkpt>
      <trkpt lat="48.65586" lon="-2.36931">
        <ele>37.699219</ele>
        <time>2019-10-07T13:13:08.000Z</time>
      </trkpt>
      <trkpt lat="48.65577" lon="-2.36935">
        <ele>36.296875</ele>
        <time>2019-10-07T13:13:16.000Z</time>
      </trkpt>
      <trkpt lat="48.65571" lon="-2.36947">
        <ele>35.398438</ele>
        <time>2019-10-07T13:13:29.000Z</time>
      </trkpt>
      <trkpt lat="48.65567" lon="-2.3696">
        <ele>37.597656</ele>
        <time>2019-10-07T13:13:39.000Z</time>
      </trkpt>
      <trkpt lat="48.6556" lon="-2.36986">
        <ele>40.199219</ele>
        <time>2019-10-07T13:13:56.000Z</time>
      </trkpt>
      <trkpt lat="48.65557" lon="-2.36999">
        <ele>40</ele>
        <time>2019-10-07T13:14:05.000Z</time>
      </trkpt>
      <trkpt lat="48.65556" lon="-2.37013">
        <ele>39.597656</ele>
        <time>2019-10-07T13:14:15.000Z</time>
      </trkpt>
      <trkpt lat="48.65558" lon="-2.37027">
        <ele>40</ele>
        <time>2019-10-07T13:14:24.000Z</time>
      </trkpt>
      <trkpt lat="48.65563" lon="-2.37056">
        <ele>41.199219</ele>
        <time>2019-10-07T13:14:42.000Z</time>
      </trkpt>
      <trkpt lat="48.65564" lon="-2.37071">
        <ele>40.597656</ele>
        <time>2019-10-07T13:14:52.000Z</time>
      </trkpt>
      <trkpt lat="48.65567" lon="-2.37144">
        <ele>40.097656</ele>
        <time>2019-10-07T13:15:47.000Z</time>
      </trkpt>
      <trkpt lat="48.65565" lon="-2.37158">
        <ele>39.699219</ele>
        <time>2019-10-07T13:15:56.000Z</time>
      </trkpt>
      <trkpt lat="48.6556" lon="-2.37171">
        <ele>39.898438</ele>
        <time>2019-10-07T13:16:05.000Z</time>
      </trkpt>
      <trkpt lat="48.65543" lon="-2.37205">
        <ele>40</ele>
        <time>2019-10-07T13:16:29.000Z</time>
      </trkpt>
      <trkpt lat="48.65537" lon="-2.37215">
        <ele>39.5</ele>
        <time>2019-10-07T13:16:36.000Z</time>
      </trkpt>
      <trkpt lat="48.65529" lon="-2.37223">
        <ele>39.296875</ele>
        <time>2019-10-07T13:16:44.000Z</time>
      </trkpt>
      <trkpt lat="48.65522" lon="-2.37232">
        <ele>39.597656</ele>
        <time>2019-10-07T13:16:53.000Z</time>
      </trkpt>
      <trkpt lat="48.65513" lon="-2.3724">
        <ele>40.699219</ele>
        <time>2019-10-07T13:17:02.000Z</time>
      </trkpt>
      <trkpt lat="48.65503" lon="-2.3724">
        <ele>41.898438</ele>
        <time>2019-10-07T13:17:10.000Z</time>
      </trkpt>
      <trkpt lat="48.65494" lon="-2.37237">
        <ele>43.199219</ele>
        <time>2019-10-07T13:17:18.000Z</time>
      </trkpt>
      <trkpt lat="48.65485" lon="-2.37234">
        <ele>44</ele>
        <time>2019-10-07T13:17:27.000Z</time>
      </trkpt>
      <trkpt lat="48.65475" lon="-2.37229">
        <ele>45.398438</ele>
        <time>2019-10-07T13:17:36.000Z</time>
      </trkpt>
      <trkpt lat="48.65466" lon="-2.37235">
        <ele>45.398438</ele>
        <time>2019-10-07T13:17:46.000Z</time>
      </trkpt>
      <trkpt lat="48.65457" lon="-2.37239">
        <ele>45.296875</ele>
        <time>2019-10-07T13:17:57.000Z</time>
      </trkpt>
      <trkpt lat="48.65439" lon="-2.37249">
        <ele>43.398438</ele>
        <time>2019-10-07T13:18:28.000Z</time>
      </trkpt>
      <trkpt lat="48.6543" lon="-2.37255">
        <ele>42.199219</ele>
        <time>2019-10-07T13:18:38.000Z</time>
      </trkpt>
      <trkpt lat="48.6542" lon="-2.37254">
        <ele>41.296875</ele>
        <time>2019-10-07T13:18:48.000Z</time>
      </trkpt>
      <trkpt lat="48.65411" lon="-2.37249">
        <ele>40.5</ele>
        <time>2019-10-07T13:18:58.000Z</time>
      </trkpt>
      <trkpt lat="48.65402" lon="-2.37248">
        <ele>38.898438</ele>
        <time>2019-10-07T13:19:08.000Z</time>
      </trkpt>
      <trkpt lat="48.65393" lon="-2.37253">
        <ele>38.097656</ele>
        <time>2019-10-07T13:19:17.000Z</time>
      </trkpt>
      <trkpt lat="48.65384" lon="-2.37257">
        <ele>36.097656</ele>
        <time>2019-10-07T13:19:26.000Z</time>
      </trkpt>
      <trkpt lat="48.65375" lon="-2.37252">
        <ele>35.699219</ele>
        <time>2019-10-07T13:19:35.000Z</time>
      </trkpt>
      <trkpt lat="48.65365" lon="-2.3725">
        <ele>34.796875</ele>
        <time>2019-10-07T13:19:46.000Z</time>
      </trkpt>
      <trkpt lat="48.65356" lon="-2.3725">
        <ele>33.597656</ele>
        <time>2019-10-07T13:19:56.000Z</time>
      </trkpt>
      <trkpt lat="48.65337" lon="-2.3725">
        <ele>30.5</ele>
        <time>2019-10-07T13:20:18.000Z</time>
      </trkpt>
      <trkpt lat="48.6533" lon="-2.3726">
        <ele>28.699219</ele>
        <time>2019-10-07T13:20:29.000Z</time>
      </trkpt>
      <trkpt lat="48.65326" lon="-2.37273">
        <ele>24.199219</ele>
        <time>2019-10-07T13:20:38.000Z</time>
      </trkpt>
      <trkpt lat="48.65317" lon="-2.37276">
        <ele>20.699219</ele>
        <time>2019-10-07T13:20:50.000Z</time>
      </trkpt>
      <trkpt lat="48.65308" lon="-2.37282">
        <ele>18.898438</ele>
        <time>2019-10-07T13:21:02.000Z</time>
      </trkpt>
      <trkpt lat="48.65299" lon="-2.37285">
        <ele>17.097656</ele>
        <time>2019-10-07T13:21:12.000Z</time>
      </trkpt>
      <trkpt lat="48.6529" lon="-2.37286">
        <ele>19.898438</ele>
        <time>2019-10-07T13:21:26.000Z</time>
      </trkpt>
      <trkpt lat="48.65282" lon="-2.37293">
        <ele>20.296875</ele>
        <time>2019-10-07T13:22:14.000Z</time>
      </trkpt>
      <trkpt lat="48.65276" lon="-2.37306">
        <ele>23.398438</ele>
        <time>2019-10-07T13:22:23.000Z</time>
      </trkpt>
      <trkpt lat="48.65265" lon="-2.3733">
        <ele>23.199219</ele>
        <time>2019-10-07T13:22:39.000Z</time>
      </trkpt>
      <trkpt lat="48.65258" lon="-2.3734">
        <ele>20.796875</ele>
        <time>2019-10-07T13:22:47.000Z</time>
      </trkpt>
      <trkpt lat="48.65251" lon="-2.37349">
        <ele>19.5</ele>
        <time>2019-10-07T13:22:54.000Z</time>
      </trkpt>
      <trkpt lat="48.65242" lon="-2.37356">
        <ele>19.296875</ele>
        <time>2019-10-07T13:23:04.000Z</time>
      </trkpt>
      <trkpt lat="48.65233" lon="-2.37361">
        <ele>19.398438</ele>
        <time>2019-10-07T13:23:11.000Z</time>
      </trkpt>
      <trkpt lat="48.65223" lon="-2.37366">
        <ele>19.796875</ele>
        <time>2019-10-07T13:23:19.000Z</time>
      </trkpt>
      <trkpt lat="48.65214" lon="-2.37369">
        <ele>20.199219</ele>
        <time>2019-10-07T13:23:27.000Z</time>
      </trkpt>
      <trkpt lat="48.65205" lon="-2.37371">
        <ele>20.898438</ele>
        <time>2019-10-07T13:23:35.000Z</time>
      </trkpt>
      <trkpt lat="48.65196" lon="-2.37372">
        <ele>21.199219</ele>
        <time>2019-10-07T13:23:43.000Z</time>
      </trkpt>
      <trkpt lat="48.65187" lon="-2.37371">
        <ele>24</ele>
        <time>2019-10-07T13:23:52.000Z</time>
      </trkpt>
      <trkpt lat="48.65178" lon="-2.37369">
        <ele>26.199219</ele>
        <time>2019-10-07T13:24:01.000Z</time>
      </trkpt>
      <trkpt lat="48.65159" lon="-2.37363">
        <ele>28.898438</ele>
        <time>2019-10-07T13:24:17.000Z</time>
      </trkpt>
      <trkpt lat="48.6515" lon="-2.37359">
        <ele>44.898438</ele>
        <time>2019-10-07T13:24:25.000Z</time>
      </trkpt>
      <trkpt lat="48.65161" lon="-2.37369">
        <ele>40.796875</ele>
        <time>2019-10-07T13:25:02.000Z</time>
      </trkpt>
      <trkpt lat="48.6516" lon="-2.37384">
        <ele>36.5</ele>
        <time>2019-10-07T13:25:14.000Z</time>
      </trkpt>
      <trkpt lat="48.65157" lon="-2.37397">
        <ele>40.796875</ele>
        <time>2019-10-07T13:25:25.000Z</time>
      </trkpt>
      <trkpt lat="48.65158" lon="-2.37411">
        <ele>39.597656</ele>
        <time>2019-10-07T13:25:35.000Z</time>
      </trkpt>
      <trkpt lat="48.6515" lon="-2.3742">
        <ele>37.699219</ele>
        <time>2019-10-07T13:25:46.000Z</time>
      </trkpt>
      <trkpt lat="48.65142" lon="-2.37428">
        <ele>36.398438</ele>
        <time>2019-10-07T13:25:55.000Z</time>
      </trkpt>
      <trkpt lat="48.65135" lon="-2.37437">
        <ele>40.199219</ele>
        <time>2019-10-07T13:26:04.000Z</time>
      </trkpt>
      <trkpt lat="48.65129" lon="-2.37448">
        <ele>42.5</ele>
        <time>2019-10-07T13:26:15.000Z</time>
      </trkpt>
      <trkpt lat="48.6512" lon="-2.37455">
        <ele>40.597656</ele>
        <time>2019-10-07T13:26:28.000Z</time>
      </trkpt>
      <trkpt lat="48.65112" lon="-2.37461">
        <ele>37.597656</ele>
        <time>2019-10-07T13:26:41.000Z</time>
      </trkpt>
      <trkpt lat="48.65109" lon="-2.37476">
        <ele>40</ele>
        <time>2019-10-07T13:27:05.000Z</time>
      </trkpt>
      <trkpt lat="48.65103" lon="-2.37486">
        <ele>40.796875</ele>
        <time>2019-10-07T13:27:15.000Z</time>
      </trkpt>
      <trkpt lat="48.65094" lon="-2.37491">
        <ele>42.699219</ele>
        <time>2019-10-07T13:27:26.000Z</time>
      </trkpt>
      <trkpt lat="48.65085" lon="-2.37488">
        <ele>42.597656</ele>
        <time>2019-10-07T13:27:38.000Z</time>
      </trkpt>
      <trkpt lat="48.65075" lon="-2.37483">
        <ele>46.597656</ele>
        <time>2019-10-07T13:27:47.000Z</time>
      </trkpt>
      <trkpt lat="48.65057" lon="-2.37474">
        <ele>54.398438</ele>
        <time>2019-10-07T13:28:07.000Z</time>
      </trkpt>
      <trkpt lat="48.6505" lon="-2.37482">
        <ele>55.199219</ele>
        <time>2019-10-07T13:28:18.000Z</time>
      </trkpt>
      <trkpt lat="48.65046" lon="-2.37495">
        <ele>53.296875</ele>
        <time>2019-10-07T13:28:30.000Z</time>
      </trkpt>
      <trkpt lat="48.6504" lon="-2.37506">
        <ele>52</ele>
        <time>2019-10-07T13:28:39.000Z</time>
      </trkpt>
      <trkpt lat="48.65034" lon="-2.37516">
        <ele>49</ele>
        <time>2019-10-07T13:28:47.000Z</time>
      </trkpt>
      <trkpt lat="48.6503" lon="-2.3753">
        <ele>48.097656</ele>
        <time>2019-10-07T13:28:56.000Z</time>
      </trkpt>
      <trkpt lat="48.65024" lon="-2.37542">
        <ele>47</ele>
        <time>2019-10-07T13:29:04.000Z</time>
      </trkpt>
      <trkpt lat="48.65019" lon="-2.37554">
        <ele>46.796875</ele>
        <time>2019-10-07T13:29:12.000Z</time>
      </trkpt>
      <trkpt lat="48.65015" lon="-2.37567">
        <ele>45.5</ele>
        <time>2019-10-07T13:29:20.000Z</time>
      </trkpt>
      <trkpt lat="48.6501" lon="-2.3758">
        <ele>45.398438</ele>
        <time>2019-10-07T13:29:28.000Z</time>
      </trkpt>
      <trkpt lat="48.65003" lon="-2.37591">
        <ele>47</ele>
        <time>2019-10-07T13:29:37.000Z</time>
      </trkpt>
      <trkpt lat="48.65002" lon="-2.37604">
        <ele>48.898438</ele>
        <time>2019-10-07T13:29:46.000Z</time>
      </trkpt>
      <trkpt lat="48.65003" lon="-2.37618">
        <ele>51.097656</ele>
        <time>2019-10-07T13:29:55.000Z</time>
      </trkpt>
      <trkpt lat="48.65" lon="-2.37632">
        <ele>53.5</ele>
        <time>2019-10-07T13:30:08.000Z</time>
      </trkpt>
      <trkpt lat="48.64995" lon="-2.37643">
        <ele>53.699219</ele>
        <time>2019-10-07T13:30:18.000Z</time>
      </trkpt>
      <trkpt lat="48.64992" lon="-2.37657">
        <ele>52.296875</ele>
        <time>2019-10-07T13:30:28.000Z</time>
      </trkpt>
      <trkpt lat="48.64988" lon="-2.3767">
        <ele>51.5</ele>
        <time>2019-10-07T13:30:36.000Z</time>
      </trkpt>
      <trkpt lat="48.64983" lon="-2.37682">
        <ele>50.097656</ele>
        <time>2019-10-07T13:30:43.000Z</time>
      </trkpt>
      <trkpt lat="48.64976" lon="-2.37691">
        <ele>50.796875</ele>
        <time>2019-10-07T13:30:51.000Z</time>
      </trkpt>
      <trkpt lat="48.64961" lon="-2.37709">
        <ele>53.597656</ele>
        <time>2019-10-07T13:31:07.000Z</time>
      </trkpt>
      <trkpt lat="48.64953" lon="-2.37716">
        <ele>55.5</ele>
        <time>2019-10-07T13:31:15.000Z</time>
      </trkpt>
      <trkpt lat="48.64945" lon="-2.37723">
        <ele>57.796875</ele>
        <time>2019-10-07T13:31:25.000Z</time>
      </trkpt>
      <trkpt lat="48.64942" lon="-2.37737">
        <ele>58.796875</ele>
        <time>2019-10-07T13:31:34.000Z</time>
      </trkpt>
      <trkpt lat="48.64937" lon="-2.37749">
        <ele>57.597656</ele>
        <time>2019-10-07T13:31:42.000Z</time>
      </trkpt>
      <trkpt lat="48.64933" lon="-2.37762">
        <ele>58.296875</ele>
        <time>2019-10-07T13:31:51.000Z</time>
      </trkpt>
      <trkpt lat="48.64929" lon="-2.37776">
        <ele>57.898438</ele>
        <time>2019-10-07T13:31:59.000Z</time>
      </trkpt>
      <trkpt lat="48.64924" lon="-2.37789">
        <ele>55.898438</ele>
        <time>2019-10-07T13:32:08.000Z</time>
      </trkpt>
      <trkpt lat="48.64917" lon="-2.37799">
        <ele>55</ele>
        <time>2019-10-07T13:32:16.000Z</time>
      </trkpt>
      <trkpt lat="48.64915" lon="-2.37812">
        <ele>54.398438</ele>
        <time>2019-10-07T13:32:25.000Z</time>
      </trkpt>
      <trkpt lat="48.6491" lon="-2.37825">
        <ele>54.5</ele>
        <time>2019-10-07T13:32:34.000Z</time>
      </trkpt>
      <trkpt lat="48.64908" lon="-2.3784">
        <ele>54.5</ele>
        <time>2019-10-07T13:32:43.000Z</time>
      </trkpt>
      <trkpt lat="48.649" lon="-2.37846">
        <ele>54.097656</ele>
        <time>2019-10-07T13:32:50.000Z</time>
      </trkpt>
      <trkpt lat="48.64894" lon="-2.37856">
        <ele>54.398438</ele>
        <time>2019-10-07T13:33:00.000Z</time>
      </trkpt>
      <trkpt lat="48.64894" lon="-2.37871">
        <ele>53.097656</ele>
        <time>2019-10-07T13:33:09.000Z</time>
      </trkpt>
      <trkpt lat="48.64893" lon="-2.37885">
        <ele>54.699219</ele>
        <time>2019-10-07T13:33:18.000Z</time>
      </trkpt>
      <trkpt lat="48.64891" lon="-2.37899">
        <ele>56.296875</ele>
        <time>2019-10-07T13:33:27.000Z</time>
      </trkpt>
      <trkpt lat="48.6489" lon="-2.37914">
        <ele>55.199219</ele>
        <time>2019-10-07T13:33:37.000Z</time>
      </trkpt>
      <trkpt lat="48.64885" lon="-2.37926">
        <ele>53</ele>
        <time>2019-10-07T13:33:51.000Z</time>
      </trkpt>
      <trkpt lat="48.64877" lon="-2.37932">
        <ele>52.398438</ele>
        <time>2019-10-07T13:34:00.000Z</time>
      </trkpt>
      <trkpt lat="48.64868" lon="-2.37934">
        <ele>55.199219</ele>
        <time>2019-10-07T13:34:12.000Z</time>
      </trkpt>
      <trkpt lat="48.64859" lon="-2.3793">
        <ele>55.597656</ele>
        <time>2019-10-07T13:34:22.000Z</time>
      </trkpt>
      <trkpt lat="48.64851" lon="-2.37936">
        <ele>58.796875</ele>
        <time>2019-10-07T13:34:31.000Z</time>
      </trkpt>
      <trkpt lat="48.64853" lon="-2.3795">
        <ele>59.296875</ele>
        <time>2019-10-07T13:34:42.000Z</time>
      </trkpt>
      <trkpt lat="48.6485" lon="-2.37964">
        <ele>58.296875</ele>
        <time>2019-10-07T13:34:51.000Z</time>
      </trkpt>
      <trkpt lat="48.64857" lon="-2.37975">
        <ele>61.097656</ele>
        <time>2019-10-07T13:35:03.000Z</time>
      </trkpt>
      <trkpt lat="48.64855" lon="-2.37989">
        <ele>61.699219</ele>
        <time>2019-10-07T13:35:12.000Z</time>
      </trkpt>
      <trkpt lat="48.64852" lon="-2.38018">
        <ele>60.199219</ele>
        <time>2019-10-07T13:35:29.000Z</time>
      </trkpt>
      <trkpt lat="48.64848" lon="-2.38031">
        <ele>57.5</ele>
        <time>2019-10-07T13:35:38.000Z</time>
      </trkpt>
      <trkpt lat="48.64845" lon="-2.38046">
        <ele>55.597656</ele>
        <time>2019-10-07T13:35:47.000Z</time>
      </trkpt>
      <trkpt lat="48.64839" lon="-2.38056">
        <ele>53.898438</ele>
        <time>2019-10-07T13:35:54.000Z</time>
      </trkpt>
      <trkpt lat="48.64833" lon="-2.38066">
        <ele>52.296875</ele>
        <time>2019-10-07T13:36:01.000Z</time>
      </trkpt>
      <trkpt lat="48.64828" lon="-2.38079">
        <ele>52.199219</ele>
        <time>2019-10-07T13:36:09.000Z</time>
      </trkpt>
      <trkpt lat="48.64822" lon="-2.3809">
        <ele>50.398438</ele>
        <time>2019-10-07T13:36:17.000Z</time>
      </trkpt>
      <trkpt lat="48.64817" lon="-2.38101">
        <ele>49.699219</ele>
        <time>2019-10-07T13:36:24.000Z</time>
      </trkpt>
      <trkpt lat="48.64818" lon="-2.38116">
        <ele>49.097656</ele>
        <time>2019-10-07T13:36:36.000Z</time>
      </trkpt>
      <trkpt lat="48.64825" lon="-2.38126">
        <ele>49.898438</ele>
        <time>2019-10-07T13:36:45.000Z</time>
      </trkpt>
      <trkpt lat="48.64832" lon="-2.38137">
        <ele>51.796875</ele>
        <time>2019-10-07T13:36:56.000Z</time>
      </trkpt>
      <trkpt lat="48.64838" lon="-2.38148">
        <ele>54.199219</ele>
        <time>2019-10-07T13:37:05.000Z</time>
      </trkpt>
      <trkpt lat="48.64837" lon="-2.38163">
        <ele>53.597656</ele>
        <time>2019-10-07T13:37:13.000Z</time>
      </trkpt>
      <trkpt lat="48.64832" lon="-2.38174">
        <ele>52.097656</ele>
        <time>2019-10-07T13:37:20.000Z</time>
      </trkpt>
      <trkpt lat="48.64825" lon="-2.38184">
        <ele>50.898438</ele>
        <time>2019-10-07T13:37:28.000Z</time>
      </trkpt>
      <trkpt lat="48.6482" lon="-2.38197">
        <ele>46.199219</ele>
        <time>2019-10-07T13:37:39.000Z</time>
      </trkpt>
      <trkpt lat="48.64813" lon="-2.38206">
        <ele>44.597656</ele>
        <time>2019-10-07T13:37:50.000Z</time>
      </trkpt>
      <trkpt lat="48.64809" lon="-2.38218">
        <ele>43.796875</ele>
        <time>2019-10-07T13:37:59.000Z</time>
      </trkpt>
      <trkpt lat="48.64802" lon="-2.38229">
        <ele>42.699219</ele>
        <time>2019-10-07T13:38:07.000Z</time>
      </trkpt>
      <trkpt lat="48.64795" lon="-2.38239">
        <ele>43.296875</ele>
        <time>2019-10-07T13:38:15.000Z</time>
      </trkpt>
      <trkpt lat="48.64787" lon="-2.38248">
        <ele>44.898438</ele>
        <time>2019-10-07T13:38:23.000Z</time>
      </trkpt>
      <trkpt lat="48.64783" lon="-2.38261">
        <ele>46.796875</ele>
        <time>2019-10-07T13:38:30.000Z</time>
      </trkpt>
      <trkpt lat="48.64781" lon="-2.38275">
        <ele>50.398438</ele>
        <time>2019-10-07T13:38:38.000Z</time>
      </trkpt>
      <trkpt lat="48.64777" lon="-2.38289">
        <ele>52.597656</ele>
        <time>2019-10-07T13:38:47.000Z</time>
      </trkpt>
      <trkpt lat="48.64771" lon="-2.383">
        <ele>52.597656</ele>
        <time>2019-10-07T13:38:54.000Z</time>
      </trkpt>
      <trkpt lat="48.64759" lon="-2.38321">
        <ele>49.5</ele>
        <time>2019-10-07T13:39:10.000Z</time>
      </trkpt>
      <trkpt lat="48.64753" lon="-2.38333">
        <ele>50.296875</ele>
        <time>2019-10-07T13:39:18.000Z</time>
      </trkpt>
      <trkpt lat="48.64749" lon="-2.38346">
        <ele>50.597656</ele>
        <time>2019-10-07T13:39:26.000Z</time>
      </trkpt>
      <trkpt lat="48.6474" lon="-2.38374">
        <ele>51.097656</ele>
        <time>2019-10-07T13:39:43.000Z</time>
      </trkpt>
      <trkpt lat="48.64734" lon="-2.38385">
        <ele>51.898438</ele>
        <time>2019-10-07T13:39:51.000Z</time>
      </trkpt>
      <trkpt lat="48.64723" lon="-2.38409">
        <ele>51.796875</ele>
        <time>2019-10-07T13:40:08.000Z</time>
      </trkpt>
      <trkpt lat="48.64725" lon="-2.38423">
        <ele>52</ele>
        <time>2019-10-07T13:40:20.000Z</time>
      </trkpt>
      <trkpt lat="48.64733" lon="-2.3843">
        <ele>57.097656</ele>
        <time>2019-10-07T13:40:31.000Z</time>
      </trkpt>
      <trkpt lat="48.64741" lon="-2.38439">
        <ele>58</ele>
        <time>2019-10-07T13:40:40.000Z</time>
      </trkpt>
      <trkpt lat="48.64742" lon="-2.38454">
        <ele>58</ele>
        <time>2019-10-07T13:40:50.000Z</time>
      </trkpt>
      <trkpt lat="48.64741" lon="-2.38468">
        <ele>59.898438</ele>
        <time>2019-10-07T13:40:58.000Z</time>
      </trkpt>
      <trkpt lat="48.64739" lon="-2.38483">
        <ele>57.097656</ele>
        <time>2019-10-07T13:41:05.000Z</time>
      </trkpt>
      <trkpt lat="48.64739" lon="-2.38498">
        <ele>57</ele>
        <time>2019-10-07T13:41:13.000Z</time>
      </trkpt>
      <trkpt lat="48.64735" lon="-2.38511">
        <ele>61.398438</ele>
        <time>2019-10-07T13:41:20.000Z</time>
      </trkpt>
      <trkpt lat="48.64735" lon="-2.38526">
        <ele>65.699219</ele>
        <time>2019-10-07T13:41:27.000Z</time>
      </trkpt>
      <trkpt lat="48.64731" lon="-2.3854">
        <ele>69.296875</ele>
        <time>2019-10-07T13:41:35.000Z</time>
      </trkpt>
      <trkpt lat="48.64729" lon="-2.38554">
        <ele>73.597656</ele>
        <time>2019-10-07T13:41:44.000Z</time>
      </trkpt>
      <trkpt lat="48.64727" lon="-2.38568">
        <ele>74.199219</ele>
        <time>2019-10-07T13:41:51.000Z</time>
      </trkpt>
      <trkpt lat="48.64723" lon="-2.38597">
        <ele>70.097656</ele>
        <time>2019-10-07T13:42:09.000Z</time>
      </trkpt>
      <trkpt lat="48.6472" lon="-2.3861">
        <ele>69.296875</ele>
        <time>2019-10-07T13:42:20.000Z</time>
      </trkpt>
      <trkpt lat="48.64717" lon="-2.38624">
        <ele>69.398438</ele>
        <time>2019-10-07T13:42:28.000Z</time>
      </trkpt>
      <trkpt lat="48.64712" lon="-2.38636">
        <ele>68.597656</ele>
        <time>2019-10-07T13:42:37.000Z</time>
      </trkpt>
      <trkpt lat="48.64711" lon="-2.38652">
        <ele>68.199219</ele>
        <time>2019-10-07T13:42:46.000Z</time>
      </trkpt>
      <trkpt lat="48.6471" lon="-2.38667">
        <ele>69.5</ele>
        <time>2019-10-07T13:42:54.000Z</time>
      </trkpt>
      <trkpt lat="48.64711" lon="-2.38682">
        <ele>67.796875</ele>
        <time>2019-10-07T13:43:03.000Z</time>
      </trkpt>
      <trkpt lat="48.64712" lon="-2.38696">
        <ele>63.296875</ele>
        <time>2019-10-07T13:43:13.000Z</time>
      </trkpt>
      <trkpt lat="48.64712" lon="-2.38727">
        <ele>62.296875</ele>
        <time>2019-10-07T13:43:27.000Z</time>
      </trkpt>
      <trkpt lat="48.64711" lon="-2.3874">
        <ele>64.5</ele>
        <time>2019-10-07T13:43:34.000Z</time>
      </trkpt>
      <trkpt lat="48.64705" lon="-2.38751">
        <ele>62.699219</ele>
        <time>2019-10-07T13:43:43.000Z</time>
      </trkpt>
      <trkpt lat="48.64696" lon="-2.38758">
        <ele>61.398438</ele>
        <time>2019-10-07T13:43:52.000Z</time>
      </trkpt>
      <trkpt lat="48.64672" lon="-2.38781">
        <ele>65.597656</ele>
        <time>2019-10-07T13:44:17.000Z</time>
      </trkpt>
      <trkpt lat="48.64663" lon="-2.38788">
        <ele>65</ele>
        <time>2019-10-07T13:44:25.000Z</time>
      </trkpt>
      <trkpt lat="48.64655" lon="-2.38793">
        <ele>64</ele>
        <time>2019-10-07T13:44:32.000Z</time>
      </trkpt>
      <trkpt lat="48.64647" lon="-2.388">
        <ele>63.398438</ele>
        <time>2019-10-07T13:44:39.000Z</time>
      </trkpt>
      <trkpt lat="48.64641" lon="-2.38812">
        <ele>63.796875</ele>
        <time>2019-10-07T13:44:47.000Z</time>
      </trkpt>
      <trkpt lat="48.64621" lon="-2.38841">
        <ele>64.898438</ele>
        <time>2019-10-07T13:45:11.000Z</time>
      </trkpt>
      <trkpt lat="48.64614" lon="-2.38851">
        <ele>63.097656</ele>
        <time>2019-10-07T13:45:19.000Z</time>
      </trkpt>
      <trkpt lat="48.64608" lon="-2.38862">
        <ele>63.097656</ele>
        <time>2019-10-07T13:45:28.000Z</time>
      </trkpt>
      <trkpt lat="48.64602" lon="-2.38873">
        <ele>64.398438</ele>
        <time>2019-10-07T13:45:36.000Z</time>
      </trkpt>
      <trkpt lat="48.6458" lon="-2.38905">
        <ele>71.097656</ele>
        <time>2019-10-07T13:46:04.000Z</time>
      </trkpt>
      <trkpt lat="48.64575" lon="-2.38918">
        <ele>71.898438</ele>
        <time>2019-10-07T13:46:12.000Z</time>
      </trkpt>
      <trkpt lat="48.64571" lon="-2.38931">
        <ele>71.097656</ele>
        <time>2019-10-07T13:46:19.000Z</time>
      </trkpt>
      <trkpt lat="48.64563" lon="-2.38939">
        <ele>73.296875</ele>
        <time>2019-10-07T13:46:27.000Z</time>
      </trkpt>
      <trkpt lat="48.64547" lon="-2.38955">
        <ele>67.898438</ele>
        <time>2019-10-07T13:46:43.000Z</time>
      </trkpt>
      <trkpt lat="48.64533" lon="-2.38975">
        <ele>69.597656</ele>
        <time>2019-10-07T13:46:57.000Z</time>
      </trkpt>
      <trkpt lat="48.64528" lon="-2.38987">
        <ele>70.097656</ele>
        <time>2019-10-07T13:47:05.000Z</time>
      </trkpt>
      <trkpt lat="48.64522" lon="-2.39">
        <ele>69.699219</ele>
        <time>2019-10-07T13:47:12.000Z</time>
      </trkpt>
      <trkpt lat="48.64516" lon="-2.39011">
        <ele>68.296875</ele>
        <time>2019-10-07T13:47:18.000Z</time>
      </trkpt>
      <trkpt lat="48.64509" lon="-2.39023">
        <ele>65.097656</ele>
        <time>2019-10-07T13:47:28.000Z</time>
      </trkpt>
      <trkpt lat="48.64501" lon="-2.39032">
        <ele>64.199219</ele>
        <time>2019-10-07T13:47:36.000Z</time>
      </trkpt>
      <trkpt lat="48.64492" lon="-2.39031">
        <ele>67.398438</ele>
        <time>2019-10-07T13:47:45.000Z</time>
      </trkpt>
      <trkpt lat="48.64488" lon="-2.39017">
        <ele>67.5</ele>
        <time>2019-10-07T13:48:29.000Z</time>
      </trkpt>
      <trkpt lat="48.6449" lon="-2.39002">
        <ele>65.097656</ele>
        <time>2019-10-07T13:48:40.000Z</time>
      </trkpt>
      <trkpt lat="48.64495" lon="-2.38976">
        <ele>62.296875</ele>
        <time>2019-10-07T13:48:58.000Z</time>
      </trkpt>
      <trkpt lat="48.64499" lon="-2.38964">
        <ele>63.5</ele>
        <time>2019-10-07T13:49:05.000Z</time>
      </trkpt>
      <trkpt lat="48.64505" lon="-2.38952">
        <ele>66.398438</ele>
        <time>2019-10-07T13:49:13.000Z</time>
      </trkpt>
      <trkpt lat="48.64508" lon="-2.38938">
        <ele>66.796875</ele>
        <time>2019-10-07T13:49:21.000Z</time>
      </trkpt>
      <trkpt lat="48.64512" lon="-2.38924">
        <ele>64.199219</ele>
        <time>2019-10-07T13:49:30.000Z</time>
      </trkpt>
      <trkpt lat="48.64516" lon="-2.38911">
        <ele>63.609375</ele>
        <time>2019-10-07T13:49:39.000Z</time>
      </trkpt>
      <trkpt lat="48.64521" lon="-2.389">
        <ele>61.199219</ele>
        <time>2019-10-07T13:50:29.000Z</time>
      </trkpt>
      <trkpt lat="48.64516" lon="-2.38887">
        <ele>60.699219</ele>
        <time>2019-10-07T13:51:52.000Z</time>
      </trkpt>
      <trkpt lat="48.64525" lon="-2.38883">
        <ele>61.097656</ele>
        <time>2019-10-07T13:52:58.000Z</time>
      </trkpt>
      <trkpt lat="48.6453" lon="-2.38871">
        <ele>62.597656</ele>
        <time>2019-10-07T13:53:09.000Z</time>
      </trkpt>
      <trkpt lat="48.64536" lon="-2.38859">
        <ele>64.796875</ele>
        <time>2019-10-07T13:53:17.000Z</time>
      </trkpt>
      <trkpt lat="48.64538" lon="-2.38844">
        <ele>65.699219</ele>
        <time>2019-10-07T13:53:26.000Z</time>
      </trkpt>
      <trkpt lat="48.64539" lon="-2.3883">
        <ele>65</ele>
        <time>2019-10-07T13:53:34.000Z</time>
      </trkpt>
      <trkpt lat="48.64544" lon="-2.38801">
        <ele>64</ele>
        <time>2019-10-07T13:54:06.000Z</time>
      </trkpt>
      <trkpt lat="48.64551" lon="-2.38792">
        <ele>64.199219</ele>
        <time>2019-10-07T13:54:12.000Z</time>
      </trkpt>
      <trkpt lat="48.64558" lon="-2.38782">
        <ele>64.398438</ele>
        <time>2019-10-07T13:54:19.000Z</time>
      </trkpt>
      <trkpt lat="48.64561" lon="-2.38769">
        <ele>64.199219</ele>
        <time>2019-10-07T13:54:28.000Z</time>
      </trkpt>
      <trkpt lat="48.64566" lon="-2.38757">
        <ele>62.898438</ele>
        <time>2019-10-07T13:54:37.000Z</time>
      </trkpt>
      <trkpt lat="48.64569" lon="-2.38744">
        <ele>62.898438</ele>
        <time>2019-10-07T13:54:46.000Z</time>
      </trkpt>
      <trkpt lat="48.64572" lon="-2.38731">
        <ele>62</ele>
        <time>2019-10-07T13:54:54.000Z</time>
      </trkpt>
      <trkpt lat="48.64577" lon="-2.38718">
        <ele>62.199219</ele>
        <time>2019-10-07T13:55:02.000Z</time>
      </trkpt>
      <trkpt lat="48.64583" lon="-2.38705">
        <ele>60.199219</ele>
        <time>2019-10-07T13:55:10.000Z</time>
      </trkpt>
      <trkpt lat="48.64585" lon="-2.38691">
        <ele>60.097656</ele>
        <time>2019-10-07T13:55:21.000Z</time>
      </trkpt>
      <trkpt lat="48.64589" lon="-2.38678">
        <ele>62.796875</ele>
        <time>2019-10-07T13:55:29.000Z</time>
      </trkpt>
      <trkpt lat="48.6458" lon="-2.38673">
        <ele>65</ele>
        <time>2019-10-07T13:55:56.000Z</time>
      </trkpt>
      <trkpt lat="48.64571" lon="-2.3867">
        <ele>65.398438</ele>
        <time>2019-10-07T13:56:06.000Z</time>
      </trkpt>
      <trkpt lat="48.64562" lon="-2.38663">
        <ele>65.296875</ele>
        <time>2019-10-07T13:56:14.000Z</time>
      </trkpt>
      <trkpt lat="48.64545" lon="-2.38652">
        <ele>61.097656</ele>
        <time>2019-10-07T13:56:28.000Z</time>
      </trkpt>
      <trkpt lat="48.64537" lon="-2.38645">
        <ele>59.5</ele>
        <time>2019-10-07T13:56:36.000Z</time>
      </trkpt>
      <trkpt lat="48.64521" lon="-2.3863">
        <ele>59</ele>
        <time>2019-10-07T13:56:51.000Z</time>
      </trkpt>
      <trkpt lat="48.6452" lon="-2.38616">
        <ele>59.5</ele>
        <time>2019-10-07T13:57:00.000Z</time>
      </trkpt>
      <trkpt lat="48.64521" lon="-2.38601">
        <ele>61.097656</ele>
        <time>2019-10-07T13:57:09.000Z</time>
      </trkpt>
      <trkpt lat="48.64523" lon="-2.38588">
        <ele>61.898438</ele>
        <time>2019-10-07T13:57:17.000Z</time>
      </trkpt>
      <trkpt lat="48.64526" lon="-2.38573">
        <ele>62.097656</ele>
        <time>2019-10-07T13:57:27.000Z</time>
      </trkpt>
      <trkpt lat="48.64526" lon="-2.38559">
        <ele>60.597656</ele>
        <time>2019-10-07T13:57:35.000Z</time>
      </trkpt>
      <trkpt lat="48.64528" lon="-2.38543">
        <ele>59.597656</ele>
        <time>2019-10-07T13:57:43.000Z</time>
      </trkpt>
      <trkpt lat="48.64532" lon="-2.38528">
        <ele>59</ele>
        <time>2019-10-07T13:57:51.000Z</time>
      </trkpt>
      <trkpt lat="48.64537" lon="-2.38515">
        <ele>58.597656</ele>
        <time>2019-10-07T13:57:59.000Z</time>
      </trkpt>
      <trkpt lat="48.64544" lon="-2.38505">
        <ele>58.699219</ele>
        <time>2019-10-07T13:58:06.000Z</time>
      </trkpt>
      <trkpt lat="48.64552" lon="-2.38497">
        <ele>58.199219</ele>
        <time>2019-10-07T13:58:13.000Z</time>
      </trkpt>
      <trkpt lat="48.6456" lon="-2.38487">
        <ele>59.398438</ele>
        <time>2019-10-07T13:58:22.000Z</time>
      </trkpt>
      <trkpt lat="48.64567" lon="-2.38476">
        <ele>59.296875</ele>
        <time>2019-10-07T13:58:30.000Z</time>
      </trkpt>
      <trkpt lat="48.64581" lon="-2.38458">
        <ele>60.5</ele>
        <time>2019-10-07T13:58:45.000Z</time>
      </trkpt>
      <trkpt lat="48.64586" lon="-2.38445">
        <ele>61.5</ele>
        <time>2019-10-07T13:58:53.000Z</time>
      </trkpt>
      <trkpt lat="48.6459" lon="-2.38431">
        <ele>61.296875</ele>
        <time>2019-10-07T13:59:01.000Z</time>
      </trkpt>
      <trkpt lat="48.64599" lon="-2.38405">
        <ele>60.5</ele>
        <time>2019-10-07T13:59:17.000Z</time>
      </trkpt>
      <trkpt lat="48.64604" lon="-2.38394">
        <ele>59.199219</ele>
        <time>2019-10-07T13:59:25.000Z</time>
      </trkpt>
      <trkpt lat="48.64621" lon="-2.38361">
        <ele>61</ele>
        <time>2019-10-07T13:59:49.000Z</time>
      </trkpt>
      <trkpt lat="48.64634" lon="-2.38338">
        <ele>61.097656</ele>
        <time>2019-10-07T14:00:07.000Z</time>
      </trkpt>
      <trkpt lat="48.64651" lon="-2.38302">
        <ele>57.898438</ele>
        <time>2019-10-07T14:00:30.000Z</time>
      </trkpt>
      <trkpt lat="48.64659" lon="-2.38293">
        <ele>57</ele>
        <time>2019-10-07T14:00:38.000Z</time>
      </trkpt>
      <trkpt lat="48.64665" lon="-2.38282">
        <ele>55.5</ele>
        <time>2019-10-07T14:00:46.000Z</time>
      </trkpt>
      <trkpt lat="48.64695" lon="-2.38226">
        <ele>55.097656</ele>
        <time>2019-10-07T14:01:26.000Z</time>
      </trkpt>
      <trkpt lat="48.64721" lon="-2.38184">
        <ele>55.898438</ele>
        <time>2019-10-07T14:01:56.000Z</time>
      </trkpt>
      <trkpt lat="48.64726" lon="-2.38171">
        <ele>57.398438</ele>
        <time>2019-10-07T14:02:06.000Z</time>
      </trkpt>
      <trkpt lat="48.64737" lon="-2.38146">
        <ele>57</ele>
        <time>2019-10-07T14:02:23.000Z</time>
      </trkpt>
      <trkpt lat="48.64754" lon="-2.38111">
        <ele>57.097656</ele>
        <time>2019-10-07T14:02:50.000Z</time>
      </trkpt>
      <trkpt lat="48.6476" lon="-2.381">
        <ele>56.296875</ele>
        <time>2019-10-07T14:03:02.000Z</time>
      </trkpt>
      <trkpt lat="48.64765" lon="-2.38089">
        <ele>58.296875</ele>
        <time>2019-10-07T14:03:11.000Z</time>
      </trkpt>
      <trkpt lat="48.64773" lon="-2.3808">
        <ele>58.597656</ele>
        <time>2019-10-07T14:03:52.000Z</time>
      </trkpt>
      <trkpt lat="48.64777" lon="-2.38066">
        <ele>58.398438</ele>
        <time>2019-10-07T14:04:01.000Z</time>
      </trkpt>
      <trkpt lat="48.64783" lon="-2.38054">
        <ele>57</ele>
        <time>2019-10-07T14:04:09.000Z</time>
      </trkpt>
      <trkpt lat="48.64789" lon="-2.38041">
        <ele>56.398438</ele>
        <time>2019-10-07T14:04:17.000Z</time>
      </trkpt>
      <trkpt lat="48.64808" lon="-2.3799">
        <ele>53.796875</ele>
        <time>2019-10-07T14:04:49.000Z</time>
      </trkpt>
      <trkpt lat="48.64812" lon="-2.37975">
        <ele>54.296875</ele>
        <time>2019-10-07T14:04:58.000Z</time>
      </trkpt>
      <trkpt lat="48.64816" lon="-2.37962">
        <ele>54</ele>
        <time>2019-10-07T14:05:06.000Z</time>
      </trkpt>
      <trkpt lat="48.64822" lon="-2.37951">
        <ele>52.898438</ele>
        <time>2019-10-07T14:05:14.000Z</time>
      </trkpt>
      <trkpt lat="48.64827" lon="-2.37939">
        <ele>55</ele>
        <time>2019-10-07T14:05:22.000Z</time>
      </trkpt>
      <trkpt lat="48.6483" lon="-2.37926">
        <ele>56.199219</ele>
        <time>2019-10-07T14:05:30.000Z</time>
      </trkpt>
      <trkpt lat="48.64835" lon="-2.37913">
        <ele>55.699219</ele>
        <time>2019-10-07T14:05:38.000Z</time>
      </trkpt>
      <trkpt lat="48.64845" lon="-2.37888">
        <ele>54.097656</ele>
        <time>2019-10-07T14:05:53.000Z</time>
      </trkpt>
      <trkpt lat="48.64851" lon="-2.37875">
        <ele>53.597656</ele>
        <time>2019-10-07T14:06:01.000Z</time>
      </trkpt>
      <trkpt lat="48.64859" lon="-2.3787">
        <ele>54.398438</ele>
        <time>2019-10-07T14:06:14.000Z</time>
      </trkpt>
      <trkpt lat="48.64862" lon="-2.37884">
        <ele>54.796875</ele>
        <time>2019-10-07T14:06:30.000Z</time>
      </trkpt>
      <trkpt lat="48.64861" lon="-2.37899">
        <ele>54.898438</ele>
        <time>2019-10-07T14:06:38.000Z</time>
      </trkpt>
      <trkpt lat="48.64865" lon="-2.37912">
        <ele>52.597656</ele>
        <time>2019-10-07T14:06:46.000Z</time>
      </trkpt>
      <trkpt lat="48.6487" lon="-2.37924">
        <ele>50.5</ele>
        <time>2019-10-07T14:06:53.000Z</time>
      </trkpt>
      <trkpt lat="48.6488" lon="-2.37928">
        <ele>47.5</ele>
        <time>2019-10-07T14:07:09.000Z</time>
      </trkpt>
      <trkpt lat="48.64883" lon="-2.37915">
        <ele>49.5</ele>
        <time>2019-10-07T14:07:23.000Z</time>
      </trkpt>
      <trkpt lat="48.64884" lon="-2.379">
        <ele>49.898438</ele>
        <time>2019-10-07T14:07:31.000Z</time>
      </trkpt>
      <trkpt lat="48.64887" lon="-2.37886">
        <ele>50.796875</ele>
        <time>2019-10-07T14:07:39.000Z</time>
      </trkpt>
      <trkpt lat="48.64888" lon="-2.37872">
        <ele>51.699219</ele>
        <time>2019-10-07T14:07:48.000Z</time>
      </trkpt>
      <trkpt lat="48.64888" lon="-2.37859">
        <ele>53.097656</ele>
        <time>2019-10-07T14:07:56.000Z</time>
      </trkpt>
      <trkpt lat="48.64891" lon="-2.37845">
        <ele>54.097656</ele>
        <time>2019-10-07T14:08:04.000Z</time>
      </trkpt>
      <trkpt lat="48.64899" lon="-2.37839">
        <ele>54.699219</ele>
        <time>2019-10-07T14:08:10.000Z</time>
      </trkpt>
      <trkpt lat="48.64904" lon="-2.37827">
        <ele>55.898438</ele>
        <time>2019-10-07T14:08:18.000Z</time>
      </trkpt>
      <trkpt lat="48.64908" lon="-2.37814">
        <ele>57.398438</ele>
        <time>2019-10-07T14:08:26.000Z</time>
      </trkpt>
      <trkpt lat="48.64908" lon="-2.378">
        <ele>58.398438</ele>
        <time>2019-10-07T14:08:34.000Z</time>
      </trkpt>
      <trkpt lat="48.64912" lon="-2.37787">
        <ele>57.5</ele>
        <time>2019-10-07T14:08:42.000Z</time>
      </trkpt>
      <trkpt lat="48.64918" lon="-2.37776">
        <ele>56.898438</ele>
        <time>2019-10-07T14:08:55.000Z</time>
      </trkpt>
      <trkpt lat="48.64923" lon="-2.37765">
        <ele>56.597656</ele>
        <time>2019-10-07T14:09:03.000Z</time>
      </trkpt>
      <trkpt lat="48.64927" lon="-2.37752">
        <ele>56</ele>
        <time>2019-10-07T14:09:10.000Z</time>
      </trkpt>
      <trkpt lat="48.64933" lon="-2.37742">
        <ele>56.5</ele>
        <time>2019-10-07T14:09:17.000Z</time>
      </trkpt>
      <trkpt lat="48.64934" lon="-2.37727">
        <ele>57.898438</ele>
        <time>2019-10-07T14:09:26.000Z</time>
      </trkpt>
      <trkpt lat="48.64941" lon="-2.37716">
        <ele>58.699219</ele>
        <time>2019-10-07T14:09:36.000Z</time>
      </trkpt>
      <trkpt lat="48.64951" lon="-2.37711">
        <ele>59.597656</ele>
        <time>2019-10-07T14:09:44.000Z</time>
      </trkpt>
      <trkpt lat="48.64959" lon="-2.37703">
        <ele>62.597656</ele>
        <time>2019-10-07T14:09:51.000Z</time>
      </trkpt>
      <trkpt lat="48.64976" lon="-2.37689">
        <ele>64.398438</ele>
        <time>2019-10-07T14:10:07.000Z</time>
      </trkpt>
      <trkpt lat="48.64982" lon="-2.37678">
        <ele>61</ele>
        <time>2019-10-07T14:10:17.000Z</time>
      </trkpt>
      <trkpt lat="48.64985" lon="-2.37665">
        <ele>60.597656</ele>
        <time>2019-10-07T14:10:29.000Z</time>
      </trkpt>
      <trkpt lat="48.64989" lon="-2.37652">
        <ele>58.796875</ele>
        <time>2019-10-07T14:10:39.000Z</time>
      </trkpt>
      <trkpt lat="48.64994" lon="-2.37639">
        <ele>58.5</ele>
        <time>2019-10-07T14:10:49.000Z</time>
      </trkpt>
      <trkpt lat="48.64996" lon="-2.37625">
        <ele>58.699219</ele>
        <time>2019-10-07T14:10:57.000Z</time>
      </trkpt>
      <trkpt lat="48.64996" lon="-2.37612">
        <ele>58.898438</ele>
        <time>2019-10-07T14:11:04.000Z</time>
      </trkpt>
      <trkpt lat="48.64997" lon="-2.37597">
        <ele>59.296875</ele>
        <time>2019-10-07T14:11:12.000Z</time>
      </trkpt>
      <trkpt lat="48.65001" lon="-2.37584">
        <ele>57.898438</ele>
        <time>2019-10-07T14:11:19.000Z</time>
      </trkpt>
      <trkpt lat="48.65009" lon="-2.37575">
        <ele>57.097656</ele>
        <time>2019-10-07T14:11:26.000Z</time>
      </trkpt>
      <trkpt lat="48.65013" lon="-2.37562">
        <ele>56.796875</ele>
        <time>2019-10-07T14:11:33.000Z</time>
      </trkpt>
      <trkpt lat="48.65017" lon="-2.37549">
        <ele>56.296875</ele>
        <time>2019-10-07T14:11:39.000Z</time>
      </trkpt>
      <trkpt lat="48.65021" lon="-2.37537">
        <ele>54.398438</ele>
        <time>2019-10-07T14:11:46.000Z</time>
      </trkpt>
      <trkpt lat="48.65026" lon="-2.37524">
        <ele>54.5</ele>
        <time>2019-10-07T14:11:55.000Z</time>
      </trkpt>
      <trkpt lat="48.65032" lon="-2.37512">
        <ele>51.898438</ele>
        <time>2019-10-07T14:12:04.000Z</time>
      </trkpt>
      <trkpt lat="48.65036" lon="-2.37499">
        <ele>52.398438</ele>
        <time>2019-10-07T14:12:13.000Z</time>
      </trkpt>
      <trkpt lat="48.65044" lon="-2.37475">
        <ele>53.597656</ele>
        <time>2019-10-07T14:12:33.000Z</time>
      </trkpt>
      <trkpt lat="48.65054" lon="-2.37472">
        <ele>56.398438</ele>
        <time>2019-10-07T14:12:40.000Z</time>
      </trkpt>
      <trkpt lat="48.65063" lon="-2.37476">
        <ele>57.199219</ele>
        <time>2019-10-07T14:12:48.000Z</time>
      </trkpt>
      <trkpt lat="48.65072" lon="-2.37484">
        <ele>55.199219</ele>
        <time>2019-10-07T14:12:55.000Z</time>
      </trkpt>
      <trkpt lat="48.6508" lon="-2.37491">
        <ele>50.699219</ele>
        <time>2019-10-07T14:13:04.000Z</time>
      </trkpt>
      <trkpt lat="48.65089" lon="-2.37496">
        <ele>46.296875</ele>
        <time>2019-10-07T14:13:13.000Z</time>
      </trkpt>
      <trkpt lat="48.65098" lon="-2.37489">
        <ele>46.699219</ele>
        <time>2019-10-07T14:13:24.000Z</time>
      </trkpt>
      <trkpt lat="48.65099" lon="-2.37475">
        <ele>47.796875</ele>
        <time>2019-10-07T14:13:38.000Z</time>
      </trkpt>
      <trkpt lat="48.65105" lon="-2.37464">
        <ele>45.398438</ele>
        <time>2019-10-07T14:13:48.000Z</time>
      </trkpt>
      <trkpt lat="48.65114" lon="-2.37461">
        <ele>43</ele>
        <time>2019-10-07T14:14:03.000Z</time>
      </trkpt>
      <trkpt lat="48.65121" lon="-2.37451">
        <ele>44</ele>
        <time>2019-10-07T14:14:13.000Z</time>
      </trkpt>
      <trkpt lat="48.65128" lon="-2.37441">
        <ele>40.796875</ele>
        <time>2019-10-07T14:14:22.000Z</time>
      </trkpt>
      <trkpt lat="48.65137" lon="-2.37435">
        <ele>34.5</ele>
        <time>2019-10-07T14:14:30.000Z</time>
      </trkpt>
      <trkpt lat="48.65143" lon="-2.37422">
        <ele>39</ele>
        <time>2019-10-07T14:14:42.000Z</time>
      </trkpt>
      <trkpt lat="48.65147" lon="-2.3741">
        <ele>33.796875</ele>
        <time>2019-10-07T14:14:51.000Z</time>
      </trkpt>
      <trkpt lat="48.65144" lon="-2.37397">
        <ele>30</ele>
        <time>2019-10-07T14:15:08.000Z</time>
      </trkpt>
      <trkpt lat="48.65141" lon="-2.37383">
        <ele>28.597656</ele>
        <time>2019-10-07T14:15:19.000Z</time>
      </trkpt>
      <trkpt lat="48.65139" lon="-2.3737">
        <ele>28.699219</ele>
        <time>2019-10-07T14:15:29.000Z</time>
      </trkpt>
      <trkpt lat="48.65143" lon="-2.37357">
        <ele>29.199219</ele>
        <time>2019-10-07T14:15:39.000Z</time>
      </trkpt>
      <trkpt lat="48.65153" lon="-2.37354">
        <ele>30.296875</ele>
        <time>2019-10-07T14:15:54.000Z</time>
      </trkpt>
      <trkpt lat="48.65162" lon="-2.37354">
        <ele>31.097656</ele>
        <time>2019-10-07T14:16:00.000Z</time>
      </trkpt>
      <trkpt lat="48.65171" lon="-2.37355">
        <ele>30.796875</ele>
        <time>2019-10-07T14:16:08.000Z</time>
      </trkpt>
      <trkpt lat="48.65191" lon="-2.3736">
        <ele>29.097656</ele>
        <time>2019-10-07T14:16:25.000Z</time>
      </trkpt>
      <trkpt lat="48.65201" lon="-2.3736">
        <ele>28.398438</ele>
        <time>2019-10-07T14:16:33.000Z</time>
      </trkpt>
      <trkpt lat="48.6521" lon="-2.37357">
        <ele>27</ele>
        <time>2019-10-07T14:16:41.000Z</time>
      </trkpt>
      <trkpt lat="48.6522" lon="-2.37354">
        <ele>25.898438</ele>
        <time>2019-10-07T14:16:50.000Z</time>
      </trkpt>
      <trkpt lat="48.65239" lon="-2.37345">
        <ele>22.597656</ele>
        <time>2019-10-07T14:17:07.000Z</time>
      </trkpt>
      <trkpt lat="48.65247" lon="-2.37339">
        <ele>21</ele>
        <time>2019-10-07T14:17:16.000Z</time>
      </trkpt>
      <trkpt lat="48.65254" lon="-2.37331">
        <ele>19.398438</ele>
        <time>2019-10-07T14:17:25.000Z</time>
      </trkpt>
      <trkpt lat="48.65262" lon="-2.37321">
        <ele>20.199219</ele>
        <time>2019-10-07T14:17:34.000Z</time>
      </trkpt>
      <trkpt lat="48.65268" lon="-2.3731">
        <ele>19.5</ele>
        <time>2019-10-07T14:17:42.000Z</time>
      </trkpt>
      <trkpt lat="48.65273" lon="-2.37299">
        <ele>20.296875</ele>
        <time>2019-10-07T14:17:50.000Z</time>
      </trkpt>
      <trkpt lat="48.6528" lon="-2.37289">
        <ele>20.199219</ele>
        <time>2019-10-07T14:17:59.000Z</time>
      </trkpt>
      <trkpt lat="48.65281" lon="-2.37275">
        <ele>21.796875</ele>
        <time>2019-10-07T14:18:16.000Z</time>
      </trkpt>
      <trkpt lat="48.6528" lon="-2.3726">
        <ele>25</ele>
        <time>2019-10-07T14:18:24.000Z</time>
      </trkpt>
      <trkpt lat="48.65273" lon="-2.37251">
        <ele>28</ele>
        <time>2019-10-07T14:18:35.000Z</time>
      </trkpt>
      <trkpt lat="48.65265" lon="-2.37243">
        <ele>29.199219</ele>
        <time>2019-10-07T14:18:45.000Z</time>
      </trkpt>
      <trkpt lat="48.65258" lon="-2.37234">
        <ele>30</ele>
        <time>2019-10-07T14:19:02.000Z</time>
      </trkpt>
      <trkpt lat="48.65251" lon="-2.37223">
        <ele>29.898438</ele>
        <time>2019-10-07T14:19:14.000Z</time>
      </trkpt>
      <trkpt lat="48.65244" lon="-2.37211">
        <ele>33</ele>
        <time>2019-10-07T14:19:36.000Z</time>
      </trkpt>
      <trkpt lat="48.65235" lon="-2.37206">
        <ele>35.699219</ele>
        <time>2019-10-07T14:19:48.000Z</time>
      </trkpt>
      <trkpt lat="48.65227" lon="-2.37199">
        <ele>36.796875</ele>
        <time>2019-10-07T14:19:58.000Z</time>
      </trkpt>
      <trkpt lat="48.65211" lon="-2.37182">
        <ele>37.796875</ele>
        <time>2019-10-07T14:20:18.000Z</time>
      </trkpt>
      <trkpt lat="48.65204" lon="-2.37172">
        <ele>34.5</ele>
        <time>2019-10-07T14:20:29.000Z</time>
      </trkpt>
      <trkpt lat="48.65198" lon="-2.3716">
        <ele>34.5</ele>
        <time>2019-10-07T14:20:39.000Z</time>
      </trkpt>
      <trkpt lat="48.65196" lon="-2.37145">
        <ele>35.699219</ele>
        <time>2019-10-07T14:20:48.000Z</time>
      </trkpt>
      <trkpt lat="48.65195" lon="-2.37131">
        <ele>38.296875</ele>
        <time>2019-10-07T14:20:57.000Z</time>
      </trkpt>
      <trkpt lat="48.65193" lon="-2.37117">
        <ele>40.597656</ele>
        <time>2019-10-07T14:21:07.000Z</time>
      </trkpt>
      <trkpt lat="48.65188" lon="-2.37089">
        <ele>45.699219</ele>
        <time>2019-10-07T14:21:27.000Z</time>
      </trkpt>
      <trkpt lat="48.65184" lon="-2.37047">
        <ele>47.097656</ele>
        <time>2019-10-07T14:21:59.000Z</time>
      </trkpt>
      <trkpt lat="48.6518" lon="-2.37034">
        <ele>47.898438</ele>
        <time>2019-10-07T14:22:08.000Z</time>
      </trkpt>
      <trkpt lat="48.65176" lon="-2.37022">
        <ele>49.097656</ele>
        <time>2019-10-07T14:22:17.000Z</time>
      </trkpt>
      <trkpt lat="48.65174" lon="-2.37009">
        <ele>50.699219</ele>
        <time>2019-10-07T14:22:26.000Z</time>
      </trkpt>
      <trkpt lat="48.65173" lon="-2.36995">
        <ele>50.898438</ele>
        <time>2019-10-07T14:22:36.000Z</time>
      </trkpt>
      <trkpt lat="48.65169" lon="-2.36982">
        <ele>53.199219</ele>
        <time>2019-10-07T14:22:48.000Z</time>
      </trkpt>
      <trkpt lat="48.65161" lon="-2.36955">
        <ele>57.296875</ele>
        <time>2019-10-07T14:23:06.000Z</time>
      </trkpt>
      <trkpt lat="48.65159" lon="-2.3694">
        <ele>57.296875</ele>
        <time>2019-10-07T14:23:15.000Z</time>
      </trkpt>
      <trkpt lat="48.65156" lon="-2.36927">
        <ele>56.796875</ele>
        <time>2019-10-07T14:23:25.000Z</time>
      </trkpt>
      <trkpt lat="48.65151" lon="-2.36914">
        <ele>57.199219</ele>
        <time>2019-10-07T14:23:35.000Z</time>
      </trkpt>
      <trkpt lat="48.65146" lon="-2.36903">
        <ele>57</ele>
        <time>2019-10-07T14:23:43.000Z</time>
      </trkpt>
      <trkpt lat="48.65128" lon="-2.36869">
        <ele>57.5</ele>
        <time>2019-10-07T14:24:14.000Z</time>
      </trkpt>
      <trkpt lat="48.65124" lon="-2.36855">
        <ele>57.597656</ele>
        <time>2019-10-07T14:24:25.000Z</time>
      </trkpt>
      <trkpt lat="48.65121" lon="-2.36841">
        <ele>57.699219</ele>
        <time>2019-10-07T14:24:35.000Z</time>
      </trkpt>
      <trkpt lat="48.65115" lon="-2.36812">
        <ele>58.796875</ele>
        <time>2019-10-07T14:24:54.000Z</time>
      </trkpt>
      <trkpt lat="48.65115" lon="-2.36799">
        <ele>58.296875</ele>
        <time>2019-10-07T14:25:03.000Z</time>
      </trkpt>
      <trkpt lat="48.65106" lon="-2.36793">
        <ele>61.699219</ele>
        <time>2019-10-07T14:25:15.000Z</time>
      </trkpt>
      <trkpt lat="48.65097" lon="-2.36792">
        <ele>63.398438</ele>
        <time>2019-10-07T14:25:25.000Z</time>
      </trkpt>
      <trkpt lat="48.6506" lon="-2.36784">
        <ele>66.296875</ele>
        <time>2019-10-07T14:26:00.000Z</time>
      </trkpt>
      <trkpt lat="48.65051" lon="-2.3678">
        <ele>66.296875</ele>
        <time>2019-10-07T14:26:09.000Z</time>
      </trkpt>
      <trkpt lat="48.65013" lon="-2.36767">
        <ele>60.398438</ele>
        <time>2019-10-07T14:26:45.000Z</time>
      </trkpt>
      <trkpt lat="48.65004" lon="-2.36767">
        <ele>58.699219</ele>
        <time>2019-10-07T14:26:54.000Z</time>
      </trkpt>
      <trkpt lat="48.64996" lon="-2.36774">
        <ele>57.898438</ele>
        <time>2019-10-07T14:27:01.000Z</time>
      </trkpt>
      <trkpt lat="48.64916" lon="-2.36853">
        <ele>58.597656</ele>
        <time>2019-10-07T14:28:18.000Z</time>
      </trkpt>
      <trkpt lat="48.64909" lon="-2.36863">
        <ele>58.097656</ele>
        <time>2019-10-07T14:28:28.000Z</time>
      </trkpt>
      <trkpt lat="48.64901" lon="-2.36869">
        <ele>59</ele>
        <time>2019-10-07T14:28:36.000Z</time>
      </trkpt>
      <trkpt lat="48.64893" lon="-2.36875">
        <ele>55.898438</ele>
        <time>2019-10-07T14:28:44.000Z</time>
      </trkpt>
      <trkpt lat="48.64883" lon="-2.36879">
        <ele>52.699219</ele>
        <time>2019-10-07T14:28:58.000Z</time>
      </trkpt>
      <trkpt lat="48.64875" lon="-2.36887">
        <ele>51.5</ele>
        <time>2019-10-07T14:29:10.000Z</time>
      </trkpt>
      <trkpt lat="48.64865" lon="-2.36893">
        <ele>49.398438</ele>
        <time>2019-10-07T14:29:19.000Z</time>
      </trkpt>
      <trkpt lat="48.64856" lon="-2.36899">
        <ele>48.5</ele>
        <time>2019-10-07T14:29:29.000Z</time>
      </trkpt>
      <trkpt lat="48.64832" lon="-2.36921">
        <ele>45.398438</ele>
        <time>2019-10-07T14:29:55.000Z</time>
      </trkpt>
      <trkpt lat="48.64822" lon="-2.36924">
        <ele>46.597656</ele>
        <time>2019-10-07T14:30:05.000Z</time>
      </trkpt>
      <trkpt lat="48.64814" lon="-2.36918">
        <ele>48</ele>
        <time>2019-10-07T14:30:13.000Z</time>
      </trkpt>
      <trkpt lat="48.64796" lon="-2.36907">
        <ele>48</ele>
        <time>2019-10-07T14:30:30.000Z</time>
      </trkpt>
      <trkpt lat="48.64787" lon="-2.36903">
        <ele>47.398438</ele>
        <time>2019-10-07T14:30:39.000Z</time>
      </trkpt>
      <trkpt lat="48.64759" lon="-2.36894">
        <ele>49.5</ele>
        <time>2019-10-07T14:31:01.000Z</time>
      </trkpt>
      <trkpt lat="48.6475" lon="-2.36889">
        <ele>50.199219</ele>
        <time>2019-10-07T14:31:10.000Z</time>
      </trkpt>
      <trkpt lat="48.64714" lon="-2.36868">
        <ele>50.796875</ele>
        <time>2019-10-07T14:31:44.000Z</time>
      </trkpt>
      <trkpt lat="48.64707" lon="-2.36857">
        <ele>52.597656</ele>
        <time>2019-10-07T14:32:01.000Z</time>
      </trkpt>
      <trkpt lat="48.64707" lon="-2.36841">
        <ele>54.898438</ele>
        <time>2019-10-07T14:32:09.000Z</time>
      </trkpt>
      <trkpt lat="48.64709" lon="-2.36827">
        <ele>57.199219</ele>
        <time>2019-10-07T14:32:17.000Z</time>
      </trkpt>
      <trkpt lat="48.64708" lon="-2.36812">
        <ele>57.699219</ele>
        <time>2019-10-07T14:32:24.000Z</time>
      </trkpt>
      <trkpt lat="48.64711" lon="-2.36799">
        <ele>57.097656</ele>
        <time>2019-10-07T14:32:32.000Z</time>
      </trkpt>
      <trkpt lat="48.64714" lon="-2.36785">
        <ele>54.097656</ele>
        <time>2019-10-07T14:32:40.000Z</time>
      </trkpt>
      <trkpt lat="48.64722" lon="-2.36765">
        <ele>52.324219</ele>
        <time>2019-10-07T14:33:00.000Z</time>
      </trkpt>
    </trkseg>
  </trk>
</gpx>